<?xml version="1.0" encoding="UTF-8" standalone="no" ?>
<gpx xmlns="http://www.topografix.com/GPX/1/1" xmlns:xsi="http://www.w3.org/2001/XMLSchema-instance" xsi:schemaLocation="http://www.topografix.com/GPX/1/1 http://www.topografix.com/GPX/1/1/gpx.xsd" version="1.1" creator="VisuGPX - https://www.visugpx.com">
  <metadata>
    <name>Traversée Chantesse - Col de Parménie</name>
    <desc><![CDATA[Beaucoup de Bitume, paysage massacré par les coupes de bois.]]></desc>
  </metadata>
  <trk>
    <name><![CDATA[2015-04-02PARMENIE]]></name>
    <trkseg>
      <trkpt lat="45.2452" lon="5.44575">
        <ele>307.28</ele>
        <time>2015-04-02T07:26:52Z</time>
      </trkpt>
      <trkpt lat="45.2452" lon="5.44574">
        <ele>307.28</ele>
        <time>2015-04-02T07:26:57Z</time>
      </trkpt>
      <trkpt lat="45.2452" lon="5.44574">
        <ele>307.28</ele>
        <time>2015-04-02T07:27:20Z</time>
      </trkpt>
      <trkpt lat="45.24521" lon="5.44564">
        <ele>307.28</ele>
        <time>2015-04-02T07:27:42Z</time>
      </trkpt>
      <trkpt lat="45.2452" lon="5.44563">
        <ele>307.76</ele>
        <time>2015-04-02T07:28:13Z</time>
      </trkpt>
      <trkpt lat="45.24521" lon="5.44563">
        <ele>306.8</ele>
        <time>2015-04-02T07:28:37Z</time>
      </trkpt>
      <trkpt lat="45.2452" lon="5.44555">
        <ele>307.28</ele>
        <time>2015-04-02T07:29:07Z</time>
      </trkpt>
      <trkpt lat="45.24523" lon="5.44557">
        <ele>307.76</ele>
        <time>2015-04-02T07:29:28Z</time>
      </trkpt>
      <trkpt lat="45.24524" lon="5.44557">
        <ele>307.76</ele>
        <time>2015-04-02T07:29:59Z</time>
      </trkpt>
      <trkpt lat="45.24523" lon="5.44553">
        <ele>308.24</ele>
        <time>2015-04-02T07:30:22Z</time>
      </trkpt>
      <trkpt lat="45.24523" lon="5.44553">
        <ele>308.24</ele>
        <time>2015-04-02T07:30:57Z</time>
      </trkpt>
      <trkpt lat="45.24523" lon="5.44554">
        <ele>308.24</ele>
        <time>2015-04-02T07:31:26Z</time>
      </trkpt>
      <trkpt lat="45.24523" lon="5.44554">
        <ele>308.24</ele>
        <time>2015-04-02T07:31:53Z</time>
      </trkpt>
      <trkpt lat="45.24523" lon="5.44545">
        <ele>308.24</ele>
        <time>2015-04-02T07:32:05Z</time>
      </trkpt>
      <trkpt lat="45.2452" lon="5.44525">
        <ele>308.72</ele>
        <time>2015-04-02T07:32:22Z</time>
      </trkpt>
      <trkpt lat="45.24492" lon="5.44524">
        <ele>308.72</ele>
        <time>2015-04-02T07:32:50Z</time>
      </trkpt>
      <trkpt lat="45.24464" lon="5.44521">
        <ele>308.24</ele>
        <time>2015-04-02T07:33:16Z</time>
      </trkpt>
      <trkpt lat="45.24433" lon="5.44514">
        <ele>307.76</ele>
        <time>2015-04-02T07:33:44Z</time>
      </trkpt>
      <trkpt lat="45.24427" lon="5.44512">
        <ele>307.76</ele>
        <time>2015-04-02T07:34:05Z</time>
      </trkpt>
      <trkpt lat="45.24426" lon="5.4451">
        <ele>307.76</ele>
        <time>2015-04-02T07:34:45Z</time>
      </trkpt>
      <trkpt lat="45.24426" lon="5.4451">
        <ele>308.24</ele>
        <time>2015-04-02T07:35:20Z</time>
      </trkpt>
      <trkpt lat="45.24426" lon="5.4451">
        <ele>307.76</ele>
        <time>2015-04-02T07:35:54Z</time>
      </trkpt>
      <trkpt lat="45.24428" lon="5.44513">
        <ele>307.28</ele>
        <time>2015-04-02T07:36:35Z</time>
      </trkpt>
      <trkpt lat="45.24426" lon="5.4451">
        <ele>308.24</ele>
        <time>2015-04-02T07:37:02Z</time>
      </trkpt>
      <trkpt lat="45.24425" lon="5.4451">
        <ele>307.28</ele>
        <time>2015-04-02T07:37:38Z</time>
      </trkpt>
      <trkpt lat="45.24425" lon="5.44512">
        <ele>307.28</ele>
        <time>2015-04-02T07:38:10Z</time>
      </trkpt>
      <trkpt lat="45.24416" lon="5.44508">
        <ele>307.76</ele>
        <time>2015-04-02T07:38:54Z</time>
      </trkpt>
      <trkpt lat="45.24393" lon="5.44499">
        <ele>307.76</ele>
        <time>2015-04-02T07:39:19Z</time>
      </trkpt>
      <trkpt lat="45.24381" lon="5.44495">
        <ele>306.8</ele>
        <time>2015-04-02T07:39:31Z</time>
      </trkpt>
      <trkpt lat="45.24356" lon="5.44479">
        <ele>306.8</ele>
        <time>2015-04-02T07:39:55Z</time>
      </trkpt>
      <trkpt lat="45.24355" lon="5.44479">
        <ele>306.8</ele>
        <time>2015-04-02T07:39:56Z</time>
      </trkpt>
      <trkpt lat="45.24353" lon="5.44475">
        <ele>306.8</ele>
        <time>2015-04-02T07:39:59Z</time>
      </trkpt>
      <trkpt lat="45.24351" lon="5.44462">
        <ele>306.8</ele>
        <time>2015-04-02T07:40:06Z</time>
      </trkpt>
      <trkpt lat="45.24355" lon="5.44429">
        <ele>308.24</ele>
        <time>2015-04-02T07:40:27Z</time>
      </trkpt>
      <trkpt lat="45.24358" lon="5.44401">
        <ele>308.72</ele>
        <time>2015-04-02T07:40:45Z</time>
      </trkpt>
      <trkpt lat="45.24356" lon="5.44375">
        <ele>309.68</ele>
        <time>2015-04-02T07:41:02Z</time>
      </trkpt>
      <trkpt lat="45.2434" lon="5.44347">
        <ele>311.6</ele>
        <time>2015-04-02T07:41:25Z</time>
      </trkpt>
      <trkpt lat="45.24326" lon="5.44324">
        <ele>312.57</ele>
        <time>2015-04-02T07:41:46Z</time>
      </trkpt>
      <trkpt lat="45.2433" lon="5.44296">
        <ele>315.45</ele>
        <time>2015-04-02T07:42:09Z</time>
      </trkpt>
      <trkpt lat="45.24339" lon="5.44263">
        <ele>315.93</ele>
        <time>2015-04-02T07:42:34Z</time>
      </trkpt>
      <trkpt lat="45.24341" lon="5.44255">
        <ele>316.41</ele>
        <time>2015-04-02T07:42:39Z</time>
      </trkpt>
      <trkpt lat="45.24345" lon="5.44222">
        <ele>317.85</ele>
        <time>2015-04-02T07:43:01Z</time>
      </trkpt>
      <trkpt lat="45.24346" lon="5.44197">
        <ele>319.78</ele>
        <time>2015-04-02T07:43:19Z</time>
      </trkpt>
      <trkpt lat="45.24355" lon="5.44164">
        <ele>320.74</ele>
        <time>2015-04-02T07:43:42Z</time>
      </trkpt>
      <trkpt lat="45.24366" lon="5.44136">
        <ele>322.18</ele>
        <time>2015-04-02T07:44:05Z</time>
      </trkpt>
      <trkpt lat="45.24373" lon="5.44111">
        <ele>325.06</ele>
        <time>2015-04-02T07:44:25Z</time>
      </trkpt>
      <trkpt lat="45.24378" lon="5.44084">
        <ele>326.99</ele>
        <time>2015-04-02T07:44:46Z</time>
      </trkpt>
      <trkpt lat="45.24383" lon="5.44062">
        <ele>329.87</ele>
        <time>2015-04-02T07:45:03Z</time>
      </trkpt>
      <trkpt lat="45.24396" lon="5.44045">
        <ele>332.75</ele>
        <time>2015-04-02T07:45:25Z</time>
      </trkpt>
      <trkpt lat="45.24412" lon="5.44034">
        <ele>334.2</ele>
        <time>2015-04-02T07:45:44Z</time>
      </trkpt>
      <trkpt lat="45.24431" lon="5.44027">
        <ele>336.12</ele>
        <time>2015-04-02T07:46:05Z</time>
      </trkpt>
      <trkpt lat="45.24456" lon="5.44009">
        <ele>338.52</ele>
        <time>2015-04-02T07:46:31Z</time>
      </trkpt>
      <trkpt lat="45.24465" lon="5.43995">
        <ele>339</ele>
        <time>2015-04-02T07:46:44Z</time>
      </trkpt>
      <trkpt lat="45.24478" lon="5.43967">
        <ele>340.44</ele>
        <time>2015-04-02T07:47:06Z</time>
      </trkpt>
      <trkpt lat="45.24484" lon="5.43942">
        <ele>340.92</ele>
        <time>2015-04-02T07:47:22Z</time>
      </trkpt>
      <trkpt lat="45.24484" lon="5.43936">
        <ele>341.41</ele>
        <time>2015-04-02T07:47:26Z</time>
      </trkpt>
      <trkpt lat="45.24486" lon="5.43919">
        <ele>341.41</ele>
        <time>2015-04-02T07:47:48Z</time>
      </trkpt>
      <trkpt lat="45.24496" lon="5.439">
        <ele>340.92</ele>
        <time>2015-04-02T07:48:14Z</time>
      </trkpt>
      <trkpt lat="45.24501" lon="5.43889">
        <ele>341.41</ele>
        <time>2015-04-02T07:48:24Z</time>
      </trkpt>
      <trkpt lat="45.24516" lon="5.43871">
        <ele>342.37</ele>
        <time>2015-04-02T07:48:46Z</time>
      </trkpt>
      <trkpt lat="45.24525" lon="5.43862">
        <ele>343.81</ele>
        <time>2015-04-02T07:48:57Z</time>
      </trkpt>
      <trkpt lat="45.24539" lon="5.43851">
        <ele>344.29</ele>
        <time>2015-04-02T07:49:17Z</time>
      </trkpt>
      <trkpt lat="45.24555" lon="5.43837">
        <ele>345.73</ele>
        <time>2015-04-02T07:49:36Z</time>
      </trkpt>
      <trkpt lat="45.24567" lon="5.43817">
        <ele>347.65</ele>
        <time>2015-04-02T07:49:56Z</time>
      </trkpt>
      <trkpt lat="45.24568" lon="5.43815">
        <ele>347.65</ele>
        <time>2015-04-02T07:49:58Z</time>
      </trkpt>
      <trkpt lat="45.24578" lon="5.43808">
        <ele>347.65</ele>
        <time>2015-04-02T07:50:11Z</time>
      </trkpt>
      <trkpt lat="45.24592" lon="5.438">
        <ele>349.58</ele>
        <time>2015-04-02T07:50:27Z</time>
      </trkpt>
      <trkpt lat="45.2461" lon="5.43789">
        <ele>349.58</ele>
        <time>2015-04-02T07:50:45Z</time>
      </trkpt>
      <trkpt lat="45.24629" lon="5.43778">
        <ele>349.58</ele>
        <time>2015-04-02T07:51:02Z</time>
      </trkpt>
      <trkpt lat="45.24648" lon="5.43769">
        <ele>351.5</ele>
        <time>2015-04-02T07:51:22Z</time>
      </trkpt>
      <trkpt lat="45.24666" lon="5.43772">
        <ele>351.5</ele>
        <time>2015-04-02T07:51:39Z</time>
      </trkpt>
      <trkpt lat="45.24684" lon="5.4376">
        <ele>350.54</ele>
        <time>2015-04-02T07:51:58Z</time>
      </trkpt>
      <trkpt lat="45.24684" lon="5.4376">
        <ele>350.06</ele>
        <time>2015-04-02T07:51:59Z</time>
      </trkpt>
      <trkpt lat="45.24703" lon="5.43746">
        <ele>350.06</ele>
        <time>2015-04-02T07:52:15Z</time>
      </trkpt>
      <trkpt lat="45.24716" lon="5.4373">
        <ele>350.06</ele>
        <time>2015-04-02T07:52:31Z</time>
      </trkpt>
      <trkpt lat="45.24725" lon="5.4372">
        <ele>350.54</ele>
        <time>2015-04-02T07:52:40Z</time>
      </trkpt>
      <trkpt lat="45.2474" lon="5.43697">
        <ele>351.02</ele>
        <time>2015-04-02T07:52:59Z</time>
      </trkpt>
      <trkpt lat="45.24756" lon="5.43688">
        <ele>351.02</ele>
        <time>2015-04-02T07:53:16Z</time>
      </trkpt>
      <trkpt lat="45.24778" lon="5.43683">
        <ele>351.5</ele>
        <time>2015-04-02T07:53:35Z</time>
      </trkpt>
      <trkpt lat="45.24799" lon="5.43675">
        <ele>351.5</ele>
        <time>2015-04-02T07:53:54Z</time>
      </trkpt>
      <trkpt lat="45.24823" lon="5.43671">
        <ele>353.9</ele>
        <time>2015-04-02T07:54:16Z</time>
      </trkpt>
      <trkpt lat="45.24845" lon="5.43674">
        <ele>353.42</ele>
        <time>2015-04-02T07:54:36Z</time>
      </trkpt>
      <trkpt lat="45.24848" lon="5.43674">
        <ele>352.46</ele>
        <time>2015-04-02T07:54:39Z</time>
      </trkpt>
      <trkpt lat="45.24853" lon="5.43674">
        <ele>352.46</ele>
        <time>2015-04-02T07:54:44Z</time>
      </trkpt>
      <trkpt lat="45.24871" lon="5.4367">
        <ele>351.98</ele>
        <time>2015-04-02T07:55:02Z</time>
      </trkpt>
      <trkpt lat="45.24886" lon="5.43658">
        <ele>352.94</ele>
        <time>2015-04-02T07:55:17Z</time>
      </trkpt>
      <trkpt lat="45.24903" lon="5.43644">
        <ele>354.38</ele>
        <time>2015-04-02T07:55:34Z</time>
      </trkpt>
      <trkpt lat="45.24907" lon="5.4364">
        <ele>354.38</ele>
        <time>2015-04-02T07:55:38Z</time>
      </trkpt>
      <trkpt lat="45.24912" lon="5.43636">
        <ele>354.38</ele>
        <time>2015-04-02T07:55:42Z</time>
      </trkpt>
      <trkpt lat="45.24933" lon="5.43629">
        <ele>355.34</ele>
        <time>2015-04-02T07:56:00Z</time>
      </trkpt>
      <trkpt lat="45.2495" lon="5.43624">
        <ele>356.31</ele>
        <time>2015-04-02T07:56:16Z</time>
      </trkpt>
      <trkpt lat="45.24968" lon="5.4362">
        <ele>357.75</ele>
        <time>2015-04-02T07:56:36Z</time>
      </trkpt>
      <trkpt lat="45.24986" lon="5.43615">
        <ele>360.15</ele>
        <time>2015-04-02T07:56:55Z</time>
      </trkpt>
      <trkpt lat="45.25003" lon="5.4361">
        <ele>362.07</ele>
        <time>2015-04-02T07:57:12Z</time>
      </trkpt>
      <trkpt lat="45.25013" lon="5.43608">
        <ele>362.07</ele>
        <time>2015-04-02T07:57:21Z</time>
      </trkpt>
      <trkpt lat="45.25025" lon="5.43609">
        <ele>362.55</ele>
        <time>2015-04-02T07:57:32Z</time>
      </trkpt>
      <trkpt lat="45.25046" lon="5.43608">
        <ele>362.55</ele>
        <time>2015-04-02T07:57:50Z</time>
      </trkpt>
      <trkpt lat="45.25057" lon="5.43604">
        <ele>363.52</ele>
        <time>2015-04-02T07:58:02Z</time>
      </trkpt>
      <trkpt lat="45.25075" lon="5.43602">
        <ele>364.48</ele>
        <time>2015-04-02T07:58:19Z</time>
      </trkpt>
      <trkpt lat="45.25093" lon="5.43607">
        <ele>364</ele>
        <time>2015-04-02T07:58:38Z</time>
      </trkpt>
      <trkpt lat="45.2511" lon="5.43602">
        <ele>365.44</ele>
        <time>2015-04-02T07:58:54Z</time>
      </trkpt>
      <trkpt lat="45.25121" lon="5.436">
        <ele>366.4</ele>
        <time>2015-04-02T07:59:06Z</time>
      </trkpt>
      <trkpt lat="45.25136" lon="5.43593">
        <ele>366.88</ele>
        <time>2015-04-02T07:59:22Z</time>
      </trkpt>
      <trkpt lat="45.25146" lon="5.4359">
        <ele>366.4</ele>
        <time>2015-04-02T07:59:32Z</time>
      </trkpt>
      <trkpt lat="45.25171" lon="5.436">
        <ele>367.36</ele>
        <time>2015-04-02T07:59:55Z</time>
      </trkpt>
      <trkpt lat="45.25179" lon="5.43607">
        <ele>366.88</ele>
        <time>2015-04-02T08:00:14Z</time>
      </trkpt>
      <trkpt lat="45.25181" lon="5.43611">
        <ele>366.88</ele>
        <time>2015-04-02T08:00:57Z</time>
      </trkpt>
      <trkpt lat="45.25183" lon="5.43611">
        <ele>367.84</ele>
        <time>2015-04-02T08:01:39Z</time>
      </trkpt>
      <trkpt lat="45.25186" lon="5.43604">
        <ele>366.4</ele>
        <time>2015-04-02T08:02:12Z</time>
      </trkpt>
      <trkpt lat="45.25186" lon="5.43606">
        <ele>366.4</ele>
        <time>2015-04-02T08:03:04Z</time>
      </trkpt>
      <trkpt lat="45.25183" lon="5.43611">
        <ele>367.84</ele>
        <time>2015-04-02T08:03:33Z</time>
      </trkpt>
      <trkpt lat="45.25184" lon="5.43608">
        <ele>366.88</ele>
        <time>2015-04-02T08:04:09Z</time>
      </trkpt>
      <trkpt lat="45.25183" lon="5.43606">
        <ele>367.84</ele>
        <time>2015-04-02T08:04:44Z</time>
      </trkpt>
      <trkpt lat="45.25187" lon="5.4361">
        <ele>366.88</ele>
        <time>2015-04-02T08:05:15Z</time>
      </trkpt>
      <trkpt lat="45.25196" lon="5.43622">
        <ele>367.36</ele>
        <time>2015-04-02T08:05:34Z</time>
      </trkpt>
      <trkpt lat="45.25214" lon="5.43635">
        <ele>367.84</ele>
        <time>2015-04-02T08:05:54Z</time>
      </trkpt>
      <trkpt lat="45.2523" lon="5.43646">
        <ele>368.8</ele>
        <time>2015-04-02T08:06:13Z</time>
      </trkpt>
      <trkpt lat="45.25238" lon="5.43649">
        <ele>368.32</ele>
        <time>2015-04-02T08:06:21Z</time>
      </trkpt>
      <trkpt lat="45.25256" lon="5.43659">
        <ele>367.84</ele>
        <time>2015-04-02T08:06:41Z</time>
      </trkpt>
      <trkpt lat="45.25273" lon="5.43676">
        <ele>365.44</ele>
        <time>2015-04-02T08:07:00Z</time>
      </trkpt>
      <trkpt lat="45.25283" lon="5.43688">
        <ele>364.48</ele>
        <time>2015-04-02T08:07:12Z</time>
      </trkpt>
      <trkpt lat="45.25293" lon="5.437">
        <ele>364.96</ele>
        <time>2015-04-02T08:07:33Z</time>
      </trkpt>
      <trkpt lat="45.25296" lon="5.43701">
        <ele>364.96</ele>
        <time>2015-04-02T08:08:09Z</time>
      </trkpt>
      <trkpt lat="45.25296" lon="5.43705">
        <ele>364.96</ele>
        <time>2015-04-02T08:08:51Z</time>
      </trkpt>
      <trkpt lat="45.25297" lon="5.43706">
        <ele>364.96</ele>
        <time>2015-04-02T08:08:56Z</time>
      </trkpt>
      <trkpt lat="45.25315" lon="5.43718">
        <ele>366.4</ele>
        <time>2015-04-02T08:09:20Z</time>
      </trkpt>
      <trkpt lat="45.25337" lon="5.43732">
        <ele>366.88</ele>
        <time>2015-04-02T08:09:44Z</time>
      </trkpt>
      <trkpt lat="45.25358" lon="5.43745">
        <ele>368.8</ele>
        <time>2015-04-02T08:10:07Z</time>
      </trkpt>
      <trkpt lat="45.25381" lon="5.43759">
        <ele>369.28</ele>
        <time>2015-04-02T08:10:30Z</time>
      </trkpt>
      <trkpt lat="45.25398" lon="5.43765">
        <ele>370.73</ele>
        <time>2015-04-02T08:10:49Z</time>
      </trkpt>
      <trkpt lat="45.25412" lon="5.4377">
        <ele>370.73</ele>
        <time>2015-04-02T08:11:08Z</time>
      </trkpt>
      <trkpt lat="45.2543" lon="5.43774">
        <ele>372.17</ele>
        <time>2015-04-02T08:11:25Z</time>
      </trkpt>
      <trkpt lat="45.25443" lon="5.43778">
        <ele>373.13</ele>
        <time>2015-04-02T08:11:42Z</time>
      </trkpt>
      <trkpt lat="45.25451" lon="5.4378">
        <ele>373.13</ele>
        <time>2015-04-02T08:11:49Z</time>
      </trkpt>
      <trkpt lat="45.2547" lon="5.43786">
        <ele>373.61</ele>
        <time>2015-04-02T08:12:07Z</time>
      </trkpt>
      <trkpt lat="45.25486" lon="5.43787">
        <ele>374.09</ele>
        <time>2015-04-02T08:12:22Z</time>
      </trkpt>
      <trkpt lat="45.25506" lon="5.43791">
        <ele>375.05</ele>
        <time>2015-04-02T08:12:37Z</time>
      </trkpt>
      <trkpt lat="45.25527" lon="5.43793">
        <ele>374.57</ele>
        <time>2015-04-02T08:12:57Z</time>
      </trkpt>
      <trkpt lat="45.25545" lon="5.43794">
        <ele>373.61</ele>
        <time>2015-04-02T08:13:15Z</time>
      </trkpt>
      <trkpt lat="45.25564" lon="5.43803">
        <ele>372.17</ele>
        <time>2015-04-02T08:13:33Z</time>
      </trkpt>
      <trkpt lat="45.2558" lon="5.43807">
        <ele>368.8</ele>
        <time>2015-04-02T08:13:50Z</time>
      </trkpt>
      <trkpt lat="45.25591" lon="5.43809">
        <ele>367.36</ele>
        <time>2015-04-02T08:14:00Z</time>
      </trkpt>
      <trkpt lat="45.25614" lon="5.43822">
        <ele>367.36</ele>
        <time>2015-04-02T08:14:20Z</time>
      </trkpt>
      <trkpt lat="45.25642" lon="5.43831">
        <ele>369.28</ele>
        <time>2015-04-02T08:14:47Z</time>
      </trkpt>
      <trkpt lat="45.25662" lon="5.43834">
        <ele>370.73</ele>
        <time>2015-04-02T08:15:08Z</time>
      </trkpt>
      <trkpt lat="45.25683" lon="5.43838">
        <ele>373.61</ele>
        <time>2015-04-02T08:15:30Z</time>
      </trkpt>
      <trkpt lat="45.25702" lon="5.43836">
        <ele>374.57</ele>
        <time>2015-04-02T08:15:50Z</time>
      </trkpt>
      <trkpt lat="45.25724" lon="5.43838">
        <ele>376.49</ele>
        <time>2015-04-02T08:16:12Z</time>
      </trkpt>
      <trkpt lat="45.25745" lon="5.43849">
        <ele>377.94</ele>
        <time>2015-04-02T08:16:33Z</time>
      </trkpt>
      <trkpt lat="45.25763" lon="5.43861">
        <ele>377.45</ele>
        <time>2015-04-02T08:16:51Z</time>
      </trkpt>
      <trkpt lat="45.2578" lon="5.43879">
        <ele>377.45</ele>
        <time>2015-04-02T08:17:16Z</time>
      </trkpt>
      <trkpt lat="45.25786" lon="5.43884">
        <ele>377.94</ele>
        <time>2015-04-02T08:17:24Z</time>
      </trkpt>
      <trkpt lat="45.25804" lon="5.43897">
        <ele>380.82</ele>
        <time>2015-04-02T08:17:48Z</time>
      </trkpt>
      <trkpt lat="45.25827" lon="5.439">
        <ele>383.22</ele>
        <time>2015-04-02T08:18:13Z</time>
      </trkpt>
      <trkpt lat="45.25837" lon="5.43899">
        <ele>382.26</ele>
        <time>2015-04-02T08:18:24Z</time>
      </trkpt>
      <trkpt lat="45.25854" lon="5.43909">
        <ele>379.86</ele>
        <time>2015-04-02T08:18:42Z</time>
      </trkpt>
      <trkpt lat="45.25873" lon="5.43921">
        <ele>378.42</ele>
        <time>2015-04-02T08:19:03Z</time>
      </trkpt>
      <trkpt lat="45.25894" lon="5.43934">
        <ele>376.49</ele>
        <time>2015-04-02T08:19:23Z</time>
      </trkpt>
      <trkpt lat="45.25913" lon="5.43945">
        <ele>375.53</ele>
        <time>2015-04-02T08:19:42Z</time>
      </trkpt>
      <trkpt lat="45.25929" lon="5.43955">
        <ele>375.05</ele>
        <time>2015-04-02T08:20:01Z</time>
      </trkpt>
      <trkpt lat="45.25945" lon="5.43966">
        <ele>376.01</ele>
        <time>2015-04-02T08:20:21Z</time>
      </trkpt>
      <trkpt lat="45.25962" lon="5.43979">
        <ele>376.49</ele>
        <time>2015-04-02T08:20:42Z</time>
      </trkpt>
      <trkpt lat="45.25982" lon="5.43994">
        <ele>378.42</ele>
        <time>2015-04-02T08:21:01Z</time>
      </trkpt>
      <trkpt lat="45.25998" lon="5.44001">
        <ele>379.86</ele>
        <time>2015-04-02T08:21:19Z</time>
      </trkpt>
      <trkpt lat="45.26015" lon="5.44009">
        <ele>381.78</ele>
        <time>2015-04-02T08:21:40Z</time>
      </trkpt>
      <trkpt lat="45.2603" lon="5.44012">
        <ele>382.74</ele>
        <time>2015-04-02T08:21:56Z</time>
      </trkpt>
      <trkpt lat="45.26038" lon="5.44017">
        <ele>383.22</ele>
        <time>2015-04-02T08:22:06Z</time>
      </trkpt>
      <trkpt lat="45.26057" lon="5.44028">
        <ele>384.18</ele>
        <time>2015-04-02T08:22:25Z</time>
      </trkpt>
      <trkpt lat="45.26072" lon="5.44037">
        <ele>385.15</ele>
        <time>2015-04-02T08:22:40Z</time>
      </trkpt>
      <trkpt lat="45.26092" lon="5.44043">
        <ele>386.59</ele>
        <time>2015-04-02T08:23:01Z</time>
      </trkpt>
      <trkpt lat="45.26112" lon="5.44053">
        <ele>387.07</ele>
        <time>2015-04-02T08:23:19Z</time>
      </trkpt>
      <trkpt lat="45.26128" lon="5.44058">
        <ele>389.47</ele>
        <time>2015-04-02T08:23:38Z</time>
      </trkpt>
      <trkpt lat="45.26144" lon="5.44065">
        <ele>391.87</ele>
        <time>2015-04-02T08:23:56Z</time>
      </trkpt>
      <trkpt lat="45.26162" lon="5.44071">
        <ele>392.84</ele>
        <time>2015-04-02T08:24:15Z</time>
      </trkpt>
      <trkpt lat="45.26181" lon="5.44075">
        <ele>394.28</ele>
        <time>2015-04-02T08:24:32Z</time>
      </trkpt>
      <trkpt lat="45.262" lon="5.44071">
        <ele>395.72</ele>
        <time>2015-04-02T08:24:51Z</time>
      </trkpt>
      <trkpt lat="45.26221" lon="5.44077">
        <ele>395.72</ele>
        <time>2015-04-02T08:25:11Z</time>
      </trkpt>
      <trkpt lat="45.26241" lon="5.44083">
        <ele>395.24</ele>
        <time>2015-04-02T08:25:30Z</time>
      </trkpt>
      <trkpt lat="45.26259" lon="5.44087">
        <ele>394.76</ele>
        <time>2015-04-02T08:25:47Z</time>
      </trkpt>
      <trkpt lat="45.26281" lon="5.44091">
        <ele>394.76</ele>
        <time>2015-04-02T08:26:07Z</time>
      </trkpt>
      <trkpt lat="45.26298" lon="5.44094">
        <ele>395.72</ele>
        <time>2015-04-02T08:26:25Z</time>
      </trkpt>
      <trkpt lat="45.26317" lon="5.44094">
        <ele>395.72</ele>
        <time>2015-04-02T08:26:41Z</time>
      </trkpt>
      <trkpt lat="45.26332" lon="5.44094">
        <ele>396.2</ele>
        <time>2015-04-02T08:26:59Z</time>
      </trkpt>
      <trkpt lat="45.26354" lon="5.44095">
        <ele>396.68</ele>
        <time>2015-04-02T08:27:19Z</time>
      </trkpt>
      <trkpt lat="45.26373" lon="5.44089">
        <ele>398.12</ele>
        <time>2015-04-02T08:27:36Z</time>
      </trkpt>
      <trkpt lat="45.26393" lon="5.44082">
        <ele>401.01</ele>
        <time>2015-04-02T08:27:56Z</time>
      </trkpt>
      <trkpt lat="45.2641" lon="5.44082">
        <ele>402.45</ele>
        <time>2015-04-02T08:28:15Z</time>
      </trkpt>
      <trkpt lat="45.26417" lon="5.44082">
        <ele>402.93</ele>
        <time>2015-04-02T08:28:22Z</time>
      </trkpt>
      <trkpt lat="45.26426" lon="5.44082">
        <ele>403.41</ele>
        <time>2015-04-02T08:28:31Z</time>
      </trkpt>
      <trkpt lat="45.26443" lon="5.44081">
        <ele>404.85</ele>
        <time>2015-04-02T08:28:48Z</time>
      </trkpt>
      <trkpt lat="45.26464" lon="5.44084">
        <ele>402.93</ele>
        <time>2015-04-02T08:29:08Z</time>
      </trkpt>
      <trkpt lat="45.26467" lon="5.44085">
        <ele>402.45</ele>
        <time>2015-04-02T08:29:11Z</time>
      </trkpt>
      <trkpt lat="45.26477" lon="5.4409">
        <ele>401.49</ele>
        <time>2015-04-02T08:29:19Z</time>
      </trkpt>
      <trkpt lat="45.26495" lon="5.44102">
        <ele>400.05</ele>
        <time>2015-04-02T08:29:37Z</time>
      </trkpt>
      <trkpt lat="45.26506" lon="5.44107">
        <ele>400.53</ele>
        <time>2015-04-02T08:29:49Z</time>
      </trkpt>
      <trkpt lat="45.26525" lon="5.44132">
        <ele>399.57</ele>
        <time>2015-04-02T08:30:14Z</time>
      </trkpt>
      <trkpt lat="45.26541" lon="5.44153">
        <ele>397.16</ele>
        <time>2015-04-02T08:30:38Z</time>
      </trkpt>
      <trkpt lat="45.26554" lon="5.44167">
        <ele>395.24</ele>
        <time>2015-04-02T08:30:58Z</time>
      </trkpt>
      <trkpt lat="45.26572" lon="5.44187">
        <ele>393.32</ele>
        <time>2015-04-02T08:31:18Z</time>
      </trkpt>
      <trkpt lat="45.26574" lon="5.44202">
        <ele>391.87</ele>
        <time>2015-04-02T08:31:28Z</time>
      </trkpt>
      <trkpt lat="45.26571" lon="5.44234">
        <ele>388.99</ele>
        <time>2015-04-02T08:31:50Z</time>
      </trkpt>
      <trkpt lat="45.26579" lon="5.44221">
        <ele>386.59</ele>
        <time>2015-04-02T08:32:07Z</time>
      </trkpt>
      <trkpt lat="45.26584" lon="5.44198">
        <ele>385.63</ele>
        <time>2015-04-02T08:32:25Z</time>
      </trkpt>
      <trkpt lat="45.26589" lon="5.44183">
        <ele>384.18</ele>
        <time>2015-04-02T08:32:36Z</time>
      </trkpt>
      <trkpt lat="45.26592" lon="5.44179">
        <ele>383.22</ele>
        <time>2015-04-02T08:32:40Z</time>
      </trkpt>
      <trkpt lat="45.26595" lon="5.44175">
        <ele>382.74</ele>
        <time>2015-04-02T08:32:44Z</time>
      </trkpt>
      <trkpt lat="45.26605" lon="5.44153">
        <ele>379.86</ele>
        <time>2015-04-02T08:33:03Z</time>
      </trkpt>
      <trkpt lat="45.26616" lon="5.44127">
        <ele>377.45</ele>
        <time>2015-04-02T08:33:21Z</time>
      </trkpt>
      <trkpt lat="45.26617" lon="5.44127">
        <ele>376.97</ele>
        <time>2015-04-02T08:33:22Z</time>
      </trkpt>
      <trkpt lat="45.26635" lon="5.44118">
        <ele>375.53</ele>
        <time>2015-04-02T08:33:42Z</time>
      </trkpt>
      <trkpt lat="45.2666" lon="5.44114">
        <ele>374.57</ele>
        <time>2015-04-02T08:34:07Z</time>
      </trkpt>
      <trkpt lat="45.26688" lon="5.44118">
        <ele>374.09</ele>
        <time>2015-04-02T08:34:31Z</time>
      </trkpt>
      <trkpt lat="45.26714" lon="5.44122">
        <ele>372.65</ele>
        <time>2015-04-02T08:34:55Z</time>
      </trkpt>
      <trkpt lat="45.26738" lon="5.44124">
        <ele>370.73</ele>
        <time>2015-04-02T08:35:19Z</time>
      </trkpt>
      <trkpt lat="45.26757" lon="5.44117">
        <ele>371.21</ele>
        <time>2015-04-02T08:35:40Z</time>
      </trkpt>
      <trkpt lat="45.26771" lon="5.44096">
        <ele>372.65</ele>
        <time>2015-04-02T08:36:01Z</time>
      </trkpt>
      <trkpt lat="45.26783" lon="5.4407">
        <ele>373.61</ele>
        <time>2015-04-02T08:36:21Z</time>
      </trkpt>
      <trkpt lat="45.26793" lon="5.4405">
        <ele>376.01</ele>
        <time>2015-04-02T08:36:40Z</time>
      </trkpt>
      <trkpt lat="45.26805" lon="5.44026">
        <ele>376.97</ele>
        <time>2015-04-02T08:37:01Z</time>
      </trkpt>
      <trkpt lat="45.26816" lon="5.44003">
        <ele>378.42</ele>
        <time>2015-04-02T08:37:19Z</time>
      </trkpt>
      <trkpt lat="45.26828" lon="5.43981">
        <ele>379.86</ele>
        <time>2015-04-02T08:37:40Z</time>
      </trkpt>
      <trkpt lat="45.26845" lon="5.43966">
        <ele>382.26</ele>
        <time>2015-04-02T08:38:00Z</time>
      </trkpt>
      <trkpt lat="45.26856" lon="5.43967">
        <ele>383.22</ele>
        <time>2015-04-02T08:38:19Z</time>
      </trkpt>
      <trkpt lat="45.2687" lon="5.4397">
        <ele>386.59</ele>
        <time>2015-04-02T08:38:38Z</time>
      </trkpt>
      <trkpt lat="45.26881" lon="5.4397">
        <ele>388.99</ele>
        <time>2015-04-02T08:38:56Z</time>
      </trkpt>
      <trkpt lat="45.2689" lon="5.43968">
        <ele>390.43</ele>
        <time>2015-04-02T08:39:10Z</time>
      </trkpt>
      <trkpt lat="45.26902" lon="5.43966">
        <ele>392.84</ele>
        <time>2015-04-02T08:39:27Z</time>
      </trkpt>
      <trkpt lat="45.26915" lon="5.43969">
        <ele>395.24</ele>
        <time>2015-04-02T08:39:45Z</time>
      </trkpt>
      <trkpt lat="45.26928" lon="5.43975">
        <ele>398.12</ele>
        <time>2015-04-02T08:40:04Z</time>
      </trkpt>
      <trkpt lat="45.26939" lon="5.43983">
        <ele>401.49</ele>
        <time>2015-04-02T08:40:22Z</time>
      </trkpt>
      <trkpt lat="45.26941" lon="5.43984">
        <ele>401.97</ele>
        <time>2015-04-02T08:40:25Z</time>
      </trkpt>
      <trkpt lat="45.26954" lon="5.43996">
        <ele>405.33</ele>
        <time>2015-04-02T08:40:47Z</time>
      </trkpt>
      <trkpt lat="45.26957" lon="5.44">
        <ele>406.29</ele>
        <time>2015-04-02T08:40:52Z</time>
      </trkpt>
      <trkpt lat="45.26962" lon="5.44016">
        <ele>409.66</ele>
        <time>2015-04-02T08:41:11Z</time>
      </trkpt>
      <trkpt lat="45.26963" lon="5.44029">
        <ele>412.54</ele>
        <time>2015-04-02T08:41:31Z</time>
      </trkpt>
      <trkpt lat="45.2696" lon="5.44044">
        <ele>415.91</ele>
        <time>2015-04-02T08:41:48Z</time>
      </trkpt>
      <trkpt lat="45.26952" lon="5.44064">
        <ele>417.83</ele>
        <time>2015-04-02T08:42:06Z</time>
      </trkpt>
      <trkpt lat="45.26946" lon="5.44081">
        <ele>420.23</ele>
        <time>2015-04-02T08:42:23Z</time>
      </trkpt>
      <trkpt lat="45.26941" lon="5.44102">
        <ele>422.16</ele>
        <time>2015-04-02T08:42:40Z</time>
      </trkpt>
      <trkpt lat="45.26938" lon="5.44126">
        <ele>423.6</ele>
        <time>2015-04-02T08:43:00Z</time>
      </trkpt>
      <trkpt lat="45.26941" lon="5.44144">
        <ele>426.48</ele>
        <time>2015-04-02T08:43:18Z</time>
      </trkpt>
      <trkpt lat="45.2695" lon="5.44138">
        <ele>429.37</ele>
        <time>2015-04-02T08:43:37Z</time>
      </trkpt>
      <trkpt lat="45.26957" lon="5.44121">
        <ele>431.29</ele>
        <time>2015-04-02T08:43:56Z</time>
      </trkpt>
      <trkpt lat="45.26964" lon="5.44104">
        <ele>434.17</ele>
        <time>2015-04-02T08:44:15Z</time>
      </trkpt>
      <trkpt lat="45.26966" lon="5.44099">
        <ele>435.13</ele>
        <time>2015-04-02T08:44:20Z</time>
      </trkpt>
      <trkpt lat="45.2698" lon="5.44089">
        <ele>436.1</ele>
        <time>2015-04-02T08:44:39Z</time>
      </trkpt>
      <trkpt lat="45.26984" lon="5.44087">
        <ele>436.1</ele>
        <time>2015-04-02T08:44:43Z</time>
      </trkpt>
      <trkpt lat="45.27001" lon="5.44074">
        <ele>436.58</ele>
        <time>2015-04-02T08:45:02Z</time>
      </trkpt>
      <trkpt lat="45.27018" lon="5.44062">
        <ele>438.5</ele>
        <time>2015-04-02T08:45:22Z</time>
      </trkpt>
      <trkpt lat="45.27033" lon="5.4405">
        <ele>439.94</ele>
        <time>2015-04-02T08:45:39Z</time>
      </trkpt>
      <trkpt lat="45.27044" lon="5.44037">
        <ele>441.86</ele>
        <time>2015-04-02T08:45:57Z</time>
      </trkpt>
      <trkpt lat="45.27055" lon="5.44025">
        <ele>444.27</ele>
        <time>2015-04-02T08:46:14Z</time>
      </trkpt>
      <trkpt lat="45.27062" lon="5.44016">
        <ele>444.75</ele>
        <time>2015-04-02T08:46:25Z</time>
      </trkpt>
      <trkpt lat="45.27074" lon="5.43998">
        <ele>447.15</ele>
        <time>2015-04-02T08:46:44Z</time>
      </trkpt>
      <trkpt lat="45.27085" lon="5.43986">
        <ele>449.07</ele>
        <time>2015-04-02T08:47:01Z</time>
      </trkpt>
      <trkpt lat="45.27096" lon="5.43975">
        <ele>451.96</ele>
        <time>2015-04-02T08:47:19Z</time>
      </trkpt>
      <trkpt lat="45.27107" lon="5.43965">
        <ele>454.36</ele>
        <time>2015-04-02T08:47:37Z</time>
      </trkpt>
      <trkpt lat="45.27118" lon="5.43954">
        <ele>456.76</ele>
        <time>2015-04-02T08:47:55Z</time>
      </trkpt>
      <trkpt lat="45.27128" lon="5.43943">
        <ele>459.65</ele>
        <time>2015-04-02T08:48:14Z</time>
      </trkpt>
      <trkpt lat="45.27137" lon="5.43932">
        <ele>461.57</ele>
        <time>2015-04-02T08:48:31Z</time>
      </trkpt>
      <trkpt lat="45.27147" lon="5.4392">
        <ele>463.01</ele>
        <time>2015-04-02T08:48:48Z</time>
      </trkpt>
      <trkpt lat="45.27153" lon="5.43916">
        <ele>464.93</ele>
        <time>2015-04-02T08:49:00Z</time>
      </trkpt>
      <trkpt lat="45.27158" lon="5.43909">
        <ele>466.86</ele>
        <time>2015-04-02T08:49:09Z</time>
      </trkpt>
      <trkpt lat="45.27165" lon="5.43897">
        <ele>469.26</ele>
        <time>2015-04-02T08:49:25Z</time>
      </trkpt>
      <trkpt lat="45.27167" lon="5.43895">
        <ele>469.26</ele>
        <time>2015-04-02T08:49:44Z</time>
      </trkpt>
      <trkpt lat="45.27164" lon="5.43896">
        <ele>469.26</ele>
        <time>2015-04-02T08:50:12Z</time>
      </trkpt>
      <trkpt lat="45.27165" lon="5.43896">
        <ele>469.26</ele>
        <time>2015-04-02T08:50:22Z</time>
      </trkpt>
      <trkpt lat="45.27169" lon="5.43902">
        <ele>468.78</ele>
        <time>2015-04-02T08:50:27Z</time>
      </trkpt>
      <trkpt lat="45.2717" lon="5.43909">
        <ele>469.26</ele>
        <time>2015-04-02T08:50:51Z</time>
      </trkpt>
      <trkpt lat="45.27173" lon="5.43913">
        <ele>467.82</ele>
        <time>2015-04-02T08:51:48Z</time>
      </trkpt>
      <trkpt lat="45.27173" lon="5.43909">
        <ele>467.82</ele>
        <time>2015-04-02T08:52:21Z</time>
      </trkpt>
      <trkpt lat="45.2717" lon="5.439">
        <ele>467.82</ele>
        <time>2015-04-02T08:52:51Z</time>
      </trkpt>
      <trkpt lat="45.27167" lon="5.43895">
        <ele>467.82</ele>
        <time>2015-04-02T08:53:14Z</time>
      </trkpt>
      <trkpt lat="45.27167" lon="5.43896">
        <ele>466.38</ele>
        <time>2015-04-02T08:53:49Z</time>
      </trkpt>
      <trkpt lat="45.27165" lon="5.43895">
        <ele>468.3</ele>
        <time>2015-04-02T08:54:15Z</time>
      </trkpt>
      <trkpt lat="45.27163" lon="5.43896">
        <ele>467.82</ele>
        <time>2015-04-02T08:54:43Z</time>
      </trkpt>
      <trkpt lat="45.27164" lon="5.43894">
        <ele>468.3</ele>
        <time>2015-04-02T08:55:15Z</time>
      </trkpt>
      <trkpt lat="45.27164" lon="5.43896">
        <ele>467.34</ele>
        <time>2015-04-02T08:55:49Z</time>
      </trkpt>
      <trkpt lat="45.27171" lon="5.43888">
        <ele>468.78</ele>
        <time>2015-04-02T08:56:20Z</time>
      </trkpt>
      <trkpt lat="45.27176" lon="5.4387">
        <ele>471.66</ele>
        <time>2015-04-02T08:56:41Z</time>
      </trkpt>
      <trkpt lat="45.27183" lon="5.43849">
        <ele>475.03</ele>
        <time>2015-04-02T08:57:03Z</time>
      </trkpt>
      <trkpt lat="45.27186" lon="5.43838">
        <ele>476.47</ele>
        <time>2015-04-02T08:57:14Z</time>
      </trkpt>
      <trkpt lat="45.27188" lon="5.43829">
        <ele>477.43</ele>
        <time>2015-04-02T08:57:21Z</time>
      </trkpt>
      <trkpt lat="45.27195" lon="5.43805">
        <ele>479.84</ele>
        <time>2015-04-02T08:57:43Z</time>
      </trkpt>
      <trkpt lat="45.27206" lon="5.43791">
        <ele>482.24</ele>
        <time>2015-04-02T08:58:03Z</time>
      </trkpt>
      <trkpt lat="45.27218" lon="5.43783">
        <ele>485.6</ele>
        <time>2015-04-02T08:58:21Z</time>
      </trkpt>
      <trkpt lat="45.27234" lon="5.43776">
        <ele>487.05</ele>
        <time>2015-04-02T08:58:42Z</time>
      </trkpt>
      <trkpt lat="45.27237" lon="5.43774">
        <ele>488.01</ele>
        <time>2015-04-02T08:58:45Z</time>
      </trkpt>
      <trkpt lat="45.27253" lon="5.43771">
        <ele>489.93</ele>
        <time>2015-04-02T08:59:04Z</time>
      </trkpt>
      <trkpt lat="45.27275" lon="5.43775">
        <ele>491.37</ele>
        <time>2015-04-02T08:59:30Z</time>
      </trkpt>
      <trkpt lat="45.2727" lon="5.43799">
        <ele>493.29</ele>
        <time>2015-04-02T08:59:54Z</time>
      </trkpt>
      <trkpt lat="45.27267" lon="5.43803">
        <ele>493.77</ele>
        <time>2015-04-02T08:59:59Z</time>
      </trkpt>
      <trkpt lat="45.27257" lon="5.43827">
        <ele>495.7</ele>
        <time>2015-04-02T09:00:20Z</time>
      </trkpt>
      <trkpt lat="45.27245" lon="5.43848">
        <ele>496.66</ele>
        <time>2015-04-02T09:00:40Z</time>
      </trkpt>
      <trkpt lat="45.27239" lon="5.43864">
        <ele>498.1</ele>
        <time>2015-04-02T09:00:54Z</time>
      </trkpt>
      <trkpt lat="45.27241" lon="5.43893">
        <ele>500.5</ele>
        <time>2015-04-02T09:01:17Z</time>
      </trkpt>
      <trkpt lat="45.27241" lon="5.43899">
        <ele>500.5</ele>
        <time>2015-04-02T09:01:22Z</time>
      </trkpt>
      <trkpt lat="45.27244" lon="5.43912">
        <ele>501.46</ele>
        <time>2015-04-02T09:01:31Z</time>
      </trkpt>
      <trkpt lat="45.27245" lon="5.43928">
        <ele>502.43</ele>
        <time>2015-04-02T09:01:42Z</time>
      </trkpt>
      <trkpt lat="45.27245" lon="5.43956">
        <ele>503.39</ele>
        <time>2015-04-02T09:02:01Z</time>
      </trkpt>
      <trkpt lat="45.27239" lon="5.43978">
        <ele>506.27</ele>
        <time>2015-04-02T09:02:20Z</time>
      </trkpt>
      <trkpt lat="45.27234" lon="5.44006">
        <ele>507.71</ele>
        <time>2015-04-02T09:02:41Z</time>
      </trkpt>
      <trkpt lat="45.27241" lon="5.44011">
        <ele>508.67</ele>
        <time>2015-04-02T09:02:51Z</time>
      </trkpt>
      <trkpt lat="45.27254" lon="5.4399">
        <ele>509.64</ele>
        <time>2015-04-02T09:03:11Z</time>
      </trkpt>
      <trkpt lat="45.27266" lon="5.43965">
        <ele>511.08</ele>
        <time>2015-04-02T09:03:31Z</time>
      </trkpt>
      <trkpt lat="45.27272" lon="5.43942">
        <ele>513</ele>
        <time>2015-04-02T09:03:49Z</time>
      </trkpt>
      <trkpt lat="45.27271" lon="5.43915">
        <ele>515.4</ele>
        <time>2015-04-02T09:04:10Z</time>
      </trkpt>
      <trkpt lat="45.27271" lon="5.4389">
        <ele>516.37</ele>
        <time>2015-04-02T09:04:26Z</time>
      </trkpt>
      <trkpt lat="45.27277" lon="5.43875">
        <ele>517.81</ele>
        <time>2015-04-02T09:04:37Z</time>
      </trkpt>
      <trkpt lat="45.27292" lon="5.43857">
        <ele>519.73</ele>
        <time>2015-04-02T09:04:57Z</time>
      </trkpt>
      <trkpt lat="45.27303" lon="5.43844">
        <ele>521.65</ele>
        <time>2015-04-02T09:05:13Z</time>
      </trkpt>
      <trkpt lat="45.27318" lon="5.43821">
        <ele>523.58</ele>
        <time>2015-04-02T09:05:35Z</time>
      </trkpt>
      <trkpt lat="45.27322" lon="5.43816">
        <ele>524.06</ele>
        <time>2015-04-02T09:05:41Z</time>
      </trkpt>
      <trkpt lat="45.27338" lon="5.43799">
        <ele>526.46</ele>
        <time>2015-04-02T09:06:02Z</time>
      </trkpt>
      <trkpt lat="45.27361" lon="5.43803">
        <ele>527.9</ele>
        <time>2015-04-02T09:06:24Z</time>
      </trkpt>
      <trkpt lat="45.27382" lon="5.43812">
        <ele>529.34</ele>
        <time>2015-04-02T09:06:43Z</time>
      </trkpt>
      <trkpt lat="45.27404" lon="5.43816">
        <ele>530.3</ele>
        <time>2015-04-02T09:07:05Z</time>
      </trkpt>
      <trkpt lat="45.2742" lon="5.43815">
        <ele>531.27</ele>
        <time>2015-04-02T09:07:21Z</time>
      </trkpt>
      <trkpt lat="45.27433" lon="5.4381">
        <ele>533.19</ele>
        <time>2015-04-02T09:07:39Z</time>
      </trkpt>
      <trkpt lat="45.27432" lon="5.43821">
        <ele>535.11</ele>
        <time>2015-04-02T09:07:59Z</time>
      </trkpt>
      <trkpt lat="45.27429" lon="5.43829">
        <ele>537.03</ele>
        <time>2015-04-02T09:08:11Z</time>
      </trkpt>
      <trkpt lat="45.27424" lon="5.43843">
        <ele>538.96</ele>
        <time>2015-04-02T09:08:31Z</time>
      </trkpt>
      <trkpt lat="45.27422" lon="5.43856">
        <ele>541.84</ele>
        <time>2015-04-02T09:08:50Z</time>
      </trkpt>
      <trkpt lat="45.27421" lon="5.43867">
        <ele>544.24</ele>
        <time>2015-04-02T09:09:09Z</time>
      </trkpt>
      <trkpt lat="45.27421" lon="5.43874">
        <ele>544.72</ele>
        <time>2015-04-02T09:09:18Z</time>
      </trkpt>
      <trkpt lat="45.27418" lon="5.43888">
        <ele>547.13</ele>
        <time>2015-04-02T09:09:32Z</time>
      </trkpt>
      <trkpt lat="45.27415" lon="5.43902">
        <ele>549.53</ele>
        <time>2015-04-02T09:09:50Z</time>
      </trkpt>
      <trkpt lat="45.27414" lon="5.43916">
        <ele>551.93</ele>
        <time>2015-04-02T09:10:08Z</time>
      </trkpt>
      <trkpt lat="45.27414" lon="5.43935">
        <ele>555.78</ele>
        <time>2015-04-02T09:10:29Z</time>
      </trkpt>
      <trkpt lat="45.27415" lon="5.43951">
        <ele>557.7</ele>
        <time>2015-04-02T09:10:47Z</time>
      </trkpt>
      <trkpt lat="45.27414" lon="5.43971">
        <ele>560.59</ele>
        <time>2015-04-02T09:11:07Z</time>
      </trkpt>
      <trkpt lat="45.27415" lon="5.43986">
        <ele>563.47</ele>
        <time>2015-04-02T09:11:24Z</time>
      </trkpt>
      <trkpt lat="45.27419" lon="5.44002">
        <ele>565.87</ele>
        <time>2015-04-02T09:11:42Z</time>
      </trkpt>
      <trkpt lat="45.27424" lon="5.44019">
        <ele>568.28</ele>
        <time>2015-04-02T09:12:01Z</time>
      </trkpt>
      <trkpt lat="45.27424" lon="5.44022">
        <ele>568.76</ele>
        <time>2015-04-02T09:12:03Z</time>
      </trkpt>
      <trkpt lat="45.27428" lon="5.44042">
        <ele>570.2</ele>
        <time>2015-04-02T09:12:22Z</time>
      </trkpt>
      <trkpt lat="45.27429" lon="5.44045">
        <ele>571.16</ele>
        <time>2015-04-02T09:12:26Z</time>
      </trkpt>
      <trkpt lat="45.27437" lon="5.44059">
        <ele>573.56</ele>
        <time>2015-04-02T09:12:45Z</time>
      </trkpt>
      <trkpt lat="45.27446" lon="5.44061">
        <ele>575.49</ele>
        <time>2015-04-02T09:13:10Z</time>
      </trkpt>
      <trkpt lat="45.27458" lon="5.44056">
        <ele>577.89</ele>
        <time>2015-04-02T09:13:31Z</time>
      </trkpt>
      <trkpt lat="45.27468" lon="5.44048">
        <ele>580.77</ele>
        <time>2015-04-02T09:13:53Z</time>
      </trkpt>
      <trkpt lat="45.27476" lon="5.4404">
        <ele>583.66</ele>
        <time>2015-04-02T09:14:18Z</time>
      </trkpt>
      <trkpt lat="45.27485" lon="5.44026">
        <ele>587.02</ele>
        <time>2015-04-02T09:14:36Z</time>
      </trkpt>
      <trkpt lat="45.27487" lon="5.44024">
        <ele>587.02</ele>
        <time>2015-04-02T09:14:40Z</time>
      </trkpt>
      <trkpt lat="45.27494" lon="5.4401">
        <ele>590.39</ele>
        <time>2015-04-02T09:14:59Z</time>
      </trkpt>
      <trkpt lat="45.27506" lon="5.43998">
        <ele>593.75</ele>
        <time>2015-04-02T09:15:23Z</time>
      </trkpt>
      <trkpt lat="45.27507" lon="5.43998">
        <ele>593.75</ele>
        <time>2015-04-02T09:15:24Z</time>
      </trkpt>
      <trkpt lat="45.27515" lon="5.43991">
        <ele>595.19</ele>
        <time>2015-04-02T09:15:38Z</time>
      </trkpt>
      <trkpt lat="45.27529" lon="5.43979">
        <ele>598.08</ele>
        <time>2015-04-02T09:15:58Z</time>
      </trkpt>
      <trkpt lat="45.27542" lon="5.4397">
        <ele>600.96</ele>
        <time>2015-04-02T09:16:19Z</time>
      </trkpt>
      <trkpt lat="45.27554" lon="5.43965">
        <ele>603.36</ele>
        <time>2015-04-02T09:16:37Z</time>
      </trkpt>
      <trkpt lat="45.27565" lon="5.43957">
        <ele>606.25</ele>
        <time>2015-04-02T09:16:56Z</time>
      </trkpt>
      <trkpt lat="45.2757" lon="5.43957">
        <ele>607.21</ele>
        <time>2015-04-02T09:17:01Z</time>
      </trkpt>
      <trkpt lat="45.27582" lon="5.4395">
        <ele>609.13</ele>
        <time>2015-04-02T09:17:20Z</time>
      </trkpt>
      <trkpt lat="45.27597" lon="5.43943">
        <ele>611.06</ele>
        <time>2015-04-02T09:17:38Z</time>
      </trkpt>
      <trkpt lat="45.27614" lon="5.43931">
        <ele>612.02</ele>
        <time>2015-04-02T09:17:59Z</time>
      </trkpt>
      <trkpt lat="45.27627" lon="5.43919">
        <ele>614.42</ele>
        <time>2015-04-02T09:18:19Z</time>
      </trkpt>
      <trkpt lat="45.2764" lon="5.43905">
        <ele>616.82</ele>
        <time>2015-04-02T09:18:39Z</time>
      </trkpt>
      <trkpt lat="45.27647" lon="5.439">
        <ele>619.23</ele>
        <time>2015-04-02T09:18:53Z</time>
      </trkpt>
      <trkpt lat="45.27659" lon="5.43894">
        <ele>621.63</ele>
        <time>2015-04-02T09:19:13Z</time>
      </trkpt>
      <trkpt lat="45.27667" lon="5.43893">
        <ele>624.99</ele>
        <time>2015-04-02T09:19:25Z</time>
      </trkpt>
      <trkpt lat="45.27678" lon="5.43897">
        <ele>626.92</ele>
        <time>2015-04-02T09:19:42Z</time>
      </trkpt>
      <trkpt lat="45.2769" lon="5.43905">
        <ele>629.8</ele>
        <time>2015-04-02T09:19:58Z</time>
      </trkpt>
      <trkpt lat="45.27701" lon="5.43913">
        <ele>633.17</ele>
        <time>2015-04-02T09:20:17Z</time>
      </trkpt>
      <trkpt lat="45.27714" lon="5.4391">
        <ele>636.05</ele>
        <time>2015-04-02T09:20:35Z</time>
      </trkpt>
      <trkpt lat="45.27724" lon="5.43909">
        <ele>637.97</ele>
        <time>2015-04-02T09:20:54Z</time>
      </trkpt>
      <trkpt lat="45.2773" lon="5.43908">
        <ele>638.45</ele>
        <time>2015-04-02T09:21:16Z</time>
      </trkpt>
      <trkpt lat="45.27732" lon="5.43906">
        <ele>638.45</ele>
        <time>2015-04-02T09:21:54Z</time>
      </trkpt>
      <trkpt lat="45.27732" lon="5.43906">
        <ele>638.93</ele>
        <time>2015-04-02T09:22:32Z</time>
      </trkpt>
      <trkpt lat="45.27731" lon="5.43907">
        <ele>638.45</ele>
        <time>2015-04-02T09:23:15Z</time>
      </trkpt>
      <trkpt lat="45.27726" lon="5.43907">
        <ele>638.93</ele>
        <time>2015-04-02T09:23:49Z</time>
      </trkpt>
      <trkpt lat="45.27731" lon="5.43909">
        <ele>639.41</ele>
        <time>2015-04-02T09:24:18Z</time>
      </trkpt>
      <trkpt lat="45.27734" lon="5.43912">
        <ele>639.41</ele>
        <time>2015-04-02T09:24:45Z</time>
      </trkpt>
      <trkpt lat="45.27734" lon="5.43907">
        <ele>638.93</ele>
        <time>2015-04-02T09:25:15Z</time>
      </trkpt>
      <trkpt lat="45.27734" lon="5.43908">
        <ele>639.41</ele>
        <time>2015-04-02T09:25:42Z</time>
      </trkpt>
      <trkpt lat="45.27737" lon="5.43907">
        <ele>640.86</ele>
        <time>2015-04-02T09:26:07Z</time>
      </trkpt>
      <trkpt lat="45.27755" lon="5.43903">
        <ele>641.82</ele>
        <time>2015-04-02T09:26:29Z</time>
      </trkpt>
      <trkpt lat="45.27766" lon="5.439">
        <ele>642.3</ele>
        <time>2015-04-02T09:26:48Z</time>
      </trkpt>
      <trkpt lat="45.27769" lon="5.43896">
        <ele>642.78</ele>
        <time>2015-04-02T09:27:23Z</time>
      </trkpt>
      <trkpt lat="45.2777" lon="5.43899">
        <ele>642.78</ele>
        <time>2015-04-02T09:27:52Z</time>
      </trkpt>
      <trkpt lat="45.27776" lon="5.43898">
        <ele>642.78</ele>
        <time>2015-04-02T09:28:28Z</time>
      </trkpt>
      <trkpt lat="45.27787" lon="5.43907">
        <ele>643.74</ele>
        <time>2015-04-02T09:28:45Z</time>
      </trkpt>
      <trkpt lat="45.27801" lon="5.43917">
        <ele>642.3</ele>
        <time>2015-04-02T09:29:04Z</time>
      </trkpt>
      <trkpt lat="45.27806" lon="5.43918">
        <ele>641.34</ele>
        <time>2015-04-02T09:29:09Z</time>
      </trkpt>
      <trkpt lat="45.2781" lon="5.43919">
        <ele>640.86</ele>
        <time>2015-04-02T09:29:13Z</time>
      </trkpt>
      <trkpt lat="45.27827" lon="5.43918">
        <ele>638.93</ele>
        <time>2015-04-02T09:29:29Z</time>
      </trkpt>
      <trkpt lat="45.2784" lon="5.43916">
        <ele>638.45</ele>
        <time>2015-04-02T09:29:43Z</time>
      </trkpt>
      <trkpt lat="45.27854" lon="5.43918">
        <ele>637.01</ele>
        <time>2015-04-02T09:29:56Z</time>
      </trkpt>
      <trkpt lat="45.27857" lon="5.43918">
        <ele>636.53</ele>
        <time>2015-04-02T09:29:58Z</time>
      </trkpt>
      <trkpt lat="45.27884" lon="5.4392">
        <ele>634.61</ele>
        <time>2015-04-02T09:30:17Z</time>
      </trkpt>
      <trkpt lat="45.27899" lon="5.43934">
        <ele>630.76</ele>
        <time>2015-04-02T09:30:37Z</time>
      </trkpt>
      <trkpt lat="45.27912" lon="5.43945">
        <ele>627.4</ele>
        <time>2015-04-02T09:30:54Z</time>
      </trkpt>
      <trkpt lat="45.27922" lon="5.43968">
        <ele>624.51</ele>
        <time>2015-04-02T09:31:14Z</time>
      </trkpt>
      <trkpt lat="45.27911" lon="5.43943">
        <ele>617.78</ele>
        <time>2015-04-02T09:31:44Z</time>
      </trkpt>
      <trkpt lat="45.27943" lon="5.43992">
        <ele>617.78</ele>
        <time>2015-04-02T09:31:45Z</time>
      </trkpt>
      <trkpt lat="45.27962" lon="5.43989">
        <ele>616.82</ele>
        <time>2015-04-02T09:32:06Z</time>
      </trkpt>
      <trkpt lat="45.27976" lon="5.4399">
        <ele>614.9</ele>
        <time>2015-04-02T09:32:26Z</time>
      </trkpt>
      <trkpt lat="45.27987" lon="5.43989">
        <ele>611.54</ele>
        <time>2015-04-02T09:32:43Z</time>
      </trkpt>
      <trkpt lat="45.2799" lon="5.43989">
        <ele>611.06</ele>
        <time>2015-04-02T09:32:46Z</time>
      </trkpt>
      <trkpt lat="45.2801" lon="5.43973">
        <ele>609.13</ele>
        <time>2015-04-02T09:33:05Z</time>
      </trkpt>
      <trkpt lat="45.28027" lon="5.43987">
        <ele>608.17</ele>
        <time>2015-04-02T09:33:22Z</time>
      </trkpt>
      <trkpt lat="45.28045" lon="5.44">
        <ele>609.61</ele>
        <time>2015-04-02T09:33:40Z</time>
      </trkpt>
      <trkpt lat="45.28064" lon="5.44006">
        <ele>611.06</ele>
        <time>2015-04-02T09:33:56Z</time>
      </trkpt>
      <trkpt lat="45.28081" lon="5.44014">
        <ele>610.09</ele>
        <time>2015-04-02T09:34:15Z</time>
      </trkpt>
      <trkpt lat="45.28094" lon="5.44021">
        <ele>609.13</ele>
        <time>2015-04-02T09:34:30Z</time>
      </trkpt>
      <trkpt lat="45.28108" lon="5.44032">
        <ele>608.17</ele>
        <time>2015-04-02T09:34:48Z</time>
      </trkpt>
      <trkpt lat="45.2812" lon="5.44037">
        <ele>606.25</ele>
        <time>2015-04-02T09:35:06Z</time>
      </trkpt>
      <trkpt lat="45.28131" lon="5.44036">
        <ele>603.36</ele>
        <time>2015-04-02T09:35:19Z</time>
      </trkpt>
      <trkpt lat="45.28142" lon="5.44036">
        <ele>600</ele>
        <time>2015-04-02T09:35:31Z</time>
      </trkpt>
      <trkpt lat="45.28143" lon="5.44036">
        <ele>600</ele>
        <time>2015-04-02T09:35:32Z</time>
      </trkpt>
      <trkpt lat="45.28155" lon="5.44039">
        <ele>596.64</ele>
        <time>2015-04-02T09:35:48Z</time>
      </trkpt>
      <trkpt lat="45.2817" lon="5.44041">
        <ele>593.75</ele>
        <time>2015-04-02T09:36:05Z</time>
      </trkpt>
      <trkpt lat="45.28183" lon="5.44047">
        <ele>590.39</ele>
        <time>2015-04-02T09:36:23Z</time>
      </trkpt>
      <trkpt lat="45.28193" lon="5.44053">
        <ele>587.5</ele>
        <time>2015-04-02T09:36:38Z</time>
      </trkpt>
      <trkpt lat="45.28206" lon="5.44061">
        <ele>584.14</ele>
        <time>2015-04-02T09:36:55Z</time>
      </trkpt>
      <trkpt lat="45.28211" lon="5.44067">
        <ele>582.7</ele>
        <time>2015-04-02T09:37:03Z</time>
      </trkpt>
      <trkpt lat="45.28224" lon="5.44078">
        <ele>579.33</ele>
        <time>2015-04-02T09:37:20Z</time>
      </trkpt>
      <trkpt lat="45.28235" lon="5.44091">
        <ele>575.97</ele>
        <time>2015-04-02T09:37:35Z</time>
      </trkpt>
      <trkpt lat="45.28242" lon="5.44102">
        <ele>572.6</ele>
        <time>2015-04-02T09:37:48Z</time>
      </trkpt>
      <trkpt lat="45.28245" lon="5.44108">
        <ele>572.12</ele>
        <time>2015-04-02T09:37:53Z</time>
      </trkpt>
      <trkpt lat="45.28252" lon="5.44115">
        <ele>568.76</ele>
        <time>2015-04-02T09:38:05Z</time>
      </trkpt>
      <trkpt lat="45.28257" lon="5.44129">
        <ele>565.39</ele>
        <time>2015-04-02T09:38:19Z</time>
      </trkpt>
      <trkpt lat="45.28261" lon="5.44148">
        <ele>562.51</ele>
        <time>2015-04-02T09:38:38Z</time>
      </trkpt>
      <trkpt lat="45.28265" lon="5.44156">
        <ele>559.62</ele>
        <time>2015-04-02T09:38:51Z</time>
      </trkpt>
      <trkpt lat="45.28269" lon="5.44163">
        <ele>556.26</ele>
        <time>2015-04-02T09:39:02Z</time>
      </trkpt>
      <trkpt lat="45.28278" lon="5.44175">
        <ele>553.38</ele>
        <time>2015-04-02T09:39:18Z</time>
      </trkpt>
      <trkpt lat="45.28283" lon="5.44182">
        <ele>550.49</ele>
        <time>2015-04-02T09:39:26Z</time>
      </trkpt>
      <trkpt lat="45.2829" lon="5.44192">
        <ele>547.61</ele>
        <time>2015-04-02T09:39:40Z</time>
      </trkpt>
      <trkpt lat="45.28295" lon="5.44202">
        <ele>544.24</ele>
        <time>2015-04-02T09:40:02Z</time>
      </trkpt>
      <trkpt lat="45.28306" lon="5.44208">
        <ele>545.2</ele>
        <time>2015-04-02T09:40:56Z</time>
      </trkpt>
      <trkpt lat="45.28305" lon="5.44207">
        <ele>545.2</ele>
        <time>2015-04-02T09:41:56Z</time>
      </trkpt>
      <trkpt lat="45.28299" lon="5.44205">
        <ele>545.69</ele>
        <time>2015-04-02T09:42:43Z</time>
      </trkpt>
      <trkpt lat="45.28296" lon="5.44211">
        <ele>546.65</ele>
        <time>2015-04-02T09:42:58Z</time>
      </trkpt>
      <trkpt lat="45.28303" lon="5.44216">
        <ele>543.76</ele>
        <time>2015-04-02T09:43:17Z</time>
      </trkpt>
      <trkpt lat="45.28304" lon="5.44218">
        <ele>542.8</ele>
        <time>2015-04-02T09:43:19Z</time>
      </trkpt>
      <trkpt lat="45.2831" lon="5.44226">
        <ele>538.48</ele>
        <time>2015-04-02T09:43:30Z</time>
      </trkpt>
      <trkpt lat="45.28311" lon="5.44228">
        <ele>538.96</ele>
        <time>2015-04-02T09:43:31Z</time>
      </trkpt>
      <trkpt lat="45.28315" lon="5.44238">
        <ele>535.59</ele>
        <time>2015-04-02T09:43:40Z</time>
      </trkpt>
      <trkpt lat="45.28316" lon="5.44239">
        <ele>535.59</ele>
        <time>2015-04-02T09:43:41Z</time>
      </trkpt>
      <trkpt lat="45.28324" lon="5.44252">
        <ele>532.23</ele>
        <time>2015-04-02T09:43:52Z</time>
      </trkpt>
      <trkpt lat="45.28328" lon="5.44255">
        <ele>531.75</ele>
        <time>2015-04-02T09:43:56Z</time>
      </trkpt>
      <trkpt lat="45.28338" lon="5.44275">
        <ele>527.9</ele>
        <time>2015-04-02T09:44:11Z</time>
      </trkpt>
      <trkpt lat="45.28343" lon="5.44278">
        <ele>526.94</ele>
        <time>2015-04-02T09:44:18Z</time>
      </trkpt>
      <trkpt lat="45.28346" lon="5.44287">
        <ele>526.46</ele>
        <time>2015-04-02T09:44:39Z</time>
      </trkpt>
      <trkpt lat="45.28355" lon="5.44289">
        <ele>525.98</ele>
        <time>2015-04-02T09:45:08Z</time>
      </trkpt>
      <trkpt lat="45.28349" lon="5.44293">
        <ele>525.98</ele>
        <time>2015-04-02T09:45:59Z</time>
      </trkpt>
      <trkpt lat="45.28351" lon="5.44294">
        <ele>525.98</ele>
        <time>2015-04-02T09:46:36Z</time>
      </trkpt>
      <trkpt lat="45.2836" lon="5.44302">
        <ele>523.09</ele>
        <time>2015-04-02T09:46:55Z</time>
      </trkpt>
      <trkpt lat="45.28369" lon="5.44315">
        <ele>521.17</ele>
        <time>2015-04-02T09:47:10Z</time>
      </trkpt>
      <trkpt lat="45.2838" lon="5.44333">
        <ele>518.77</ele>
        <time>2015-04-02T09:47:30Z</time>
      </trkpt>
      <trkpt lat="45.28385" lon="5.44344">
        <ele>516.85</ele>
        <time>2015-04-02T09:47:40Z</time>
      </trkpt>
      <trkpt lat="45.28395" lon="5.44365">
        <ele>514.44</ele>
        <time>2015-04-02T09:47:58Z</time>
      </trkpt>
      <trkpt lat="45.28403" lon="5.44386">
        <ele>511.56</ele>
        <time>2015-04-02T09:48:17Z</time>
      </trkpt>
      <trkpt lat="45.28413" lon="5.44408">
        <ele>508.19</ele>
        <time>2015-04-02T09:48:36Z</time>
      </trkpt>
      <trkpt lat="45.28416" lon="5.44416">
        <ele>507.23</ele>
        <time>2015-04-02T09:48:43Z</time>
      </trkpt>
      <trkpt lat="45.28424" lon="5.44439">
        <ele>503.87</ele>
        <time>2015-04-02T09:49:03Z</time>
      </trkpt>
      <trkpt lat="45.28432" lon="5.44459">
        <ele>500.98</ele>
        <time>2015-04-02T09:49:21Z</time>
      </trkpt>
      <trkpt lat="45.28438" lon="5.44472">
        <ele>497.62</ele>
        <time>2015-04-02T09:49:38Z</time>
      </trkpt>
      <trkpt lat="45.28448" lon="5.44489">
        <ele>495.22</ele>
        <time>2015-04-02T09:49:57Z</time>
      </trkpt>
      <trkpt lat="45.28454" lon="5.44499">
        <ele>492.33</ele>
        <time>2015-04-02T09:50:11Z</time>
      </trkpt>
      <trkpt lat="45.28465" lon="5.44511">
        <ele>489.93</ele>
        <time>2015-04-02T09:50:30Z</time>
      </trkpt>
      <trkpt lat="45.28476" lon="5.4452">
        <ele>487.53</ele>
        <time>2015-04-02T09:50:46Z</time>
      </trkpt>
      <trkpt lat="45.28488" lon="5.44522">
        <ele>484.16</ele>
        <time>2015-04-02T09:51:03Z</time>
      </trkpt>
      <trkpt lat="45.28502" lon="5.44525">
        <ele>481.76</ele>
        <time>2015-04-02T09:51:21Z</time>
      </trkpt>
      <trkpt lat="45.28517" lon="5.4453">
        <ele>478.87</ele>
        <time>2015-04-02T09:51:41Z</time>
      </trkpt>
      <trkpt lat="45.28527" lon="5.44528">
        <ele>476.95</ele>
        <time>2015-04-02T09:52:05Z</time>
      </trkpt>
      <trkpt lat="45.28527" lon="5.44506">
        <ele>478.39</ele>
        <time>2015-04-02T09:52:28Z</time>
      </trkpt>
      <trkpt lat="45.28527" lon="5.44486">
        <ele>479.84</ele>
        <time>2015-04-02T09:52:43Z</time>
      </trkpt>
      <trkpt lat="45.28527" lon="5.44466">
        <ele>481.28</ele>
        <time>2015-04-02T09:52:59Z</time>
      </trkpt>
      <trkpt lat="45.28527" lon="5.44461">
        <ele>480.8</ele>
        <time>2015-04-02T09:53:04Z</time>
      </trkpt>
      <trkpt lat="45.28534" lon="5.44433">
        <ele>483.2</ele>
        <time>2015-04-02T09:53:26Z</time>
      </trkpt>
      <trkpt lat="45.28549" lon="5.4441">
        <ele>486.08</ele>
        <time>2015-04-02T09:53:47Z</time>
      </trkpt>
      <trkpt lat="45.28564" lon="5.44381">
        <ele>487.53</ele>
        <time>2015-04-02T09:54:13Z</time>
      </trkpt>
      <trkpt lat="45.28572" lon="5.44361">
        <ele>489.45</ele>
        <time>2015-04-02T09:54:30Z</time>
      </trkpt>
      <trkpt lat="45.28578" lon="5.44335">
        <ele>490.89</ele>
        <time>2015-04-02T09:54:51Z</time>
      </trkpt>
      <trkpt lat="45.28585" lon="5.44314">
        <ele>492.33</ele>
        <time>2015-04-02T09:55:09Z</time>
      </trkpt>
      <trkpt lat="45.28591" lon="5.44291">
        <ele>493.77</ele>
        <time>2015-04-02T09:55:29Z</time>
      </trkpt>
      <trkpt lat="45.28594" lon="5.44275">
        <ele>494.74</ele>
        <time>2015-04-02T09:55:51Z</time>
      </trkpt>
      <trkpt lat="45.28604" lon="5.44254">
        <ele>497.14</ele>
        <time>2015-04-02T09:56:11Z</time>
      </trkpt>
      <trkpt lat="45.28609" lon="5.4423">
        <ele>498.1</ele>
        <time>2015-04-02T09:56:31Z</time>
      </trkpt>
      <trkpt lat="45.28622" lon="5.4421">
        <ele>499.54</ele>
        <time>2015-04-02T09:56:51Z</time>
      </trkpt>
      <trkpt lat="45.28641" lon="5.44212">
        <ele>500.98</ele>
        <time>2015-04-02T09:57:10Z</time>
      </trkpt>
      <trkpt lat="45.28646" lon="5.44215">
        <ele>500.5</ele>
        <time>2015-04-02T09:57:14Z</time>
      </trkpt>
      <trkpt lat="45.28655" lon="5.44247">
        <ele>501.95</ele>
        <time>2015-04-02T09:57:35Z</time>
      </trkpt>
      <trkpt lat="45.28655" lon="5.44275">
        <ele>503.87</ele>
        <time>2015-04-02T09:57:53Z</time>
      </trkpt>
      <trkpt lat="45.28661" lon="5.44298">
        <ele>505.31</ele>
        <time>2015-04-02T09:58:11Z</time>
      </trkpt>
      <trkpt lat="45.28672" lon="5.44324">
        <ele>507.23</ele>
        <time>2015-04-02T09:58:34Z</time>
      </trkpt>
      <trkpt lat="45.28675" lon="5.44329">
        <ele>507.23</ele>
        <time>2015-04-02T09:58:58Z</time>
      </trkpt>
      <trkpt lat="45.28677" lon="5.4433">
        <ele>507.23</ele>
        <time>2015-04-02T09:59:42Z</time>
      </trkpt>
      <trkpt lat="45.28682" lon="5.44328">
        <ele>506.75</ele>
        <time>2015-04-02T10:00:28Z</time>
      </trkpt>
      <trkpt lat="45.28676" lon="5.44328">
        <ele>507.23</ele>
        <time>2015-04-02T10:01:03Z</time>
      </trkpt>
      <trkpt lat="45.28678" lon="5.44329">
        <ele>507.23</ele>
        <time>2015-04-02T10:01:54Z</time>
      </trkpt>
      <trkpt lat="45.28675" lon="5.4433">
        <ele>508.19</ele>
        <time>2015-04-02T10:02:28Z</time>
      </trkpt>
      <trkpt lat="45.28676" lon="5.44332">
        <ele>508.67</ele>
        <time>2015-04-02T10:03:00Z</time>
      </trkpt>
      <trkpt lat="45.28677" lon="5.44346">
        <ele>509.16</ele>
        <time>2015-04-02T10:03:23Z</time>
      </trkpt>
      <trkpt lat="45.28679" lon="5.44352">
        <ele>509.16</ele>
        <time>2015-04-02T10:03:48Z</time>
      </trkpt>
      <trkpt lat="45.28679" lon="5.44364">
        <ele>510.12</ele>
        <time>2015-04-02T10:04:09Z</time>
      </trkpt>
      <trkpt lat="45.28683" lon="5.44389">
        <ele>512.04</ele>
        <time>2015-04-02T10:04:29Z</time>
      </trkpt>
      <trkpt lat="45.28686" lon="5.44409">
        <ele>513.48</ele>
        <time>2015-04-02T10:04:44Z</time>
      </trkpt>
      <trkpt lat="45.28689" lon="5.44437">
        <ele>514.92</ele>
        <time>2015-04-02T10:05:04Z</time>
      </trkpt>
      <trkpt lat="45.28694" lon="5.44467">
        <ele>516.37</ele>
        <time>2015-04-02T10:05:26Z</time>
      </trkpt>
      <trkpt lat="45.28697" lon="5.44496">
        <ele>519.25</ele>
        <time>2015-04-02T10:05:48Z</time>
      </trkpt>
      <trkpt lat="45.28701" lon="5.44526">
        <ele>521.17</ele>
        <time>2015-04-02T10:06:11Z</time>
      </trkpt>
      <trkpt lat="45.28703" lon="5.44555">
        <ele>522.13</ele>
        <time>2015-04-02T10:06:31Z</time>
      </trkpt>
      <trkpt lat="45.28705" lon="5.44574">
        <ele>523.58</ele>
        <time>2015-04-02T10:06:46Z</time>
      </trkpt>
      <trkpt lat="45.28708" lon="5.44598">
        <ele>525.5</ele>
        <time>2015-04-02T10:07:06Z</time>
      </trkpt>
      <trkpt lat="45.2871" lon="5.44625">
        <ele>526.46</ele>
        <time>2015-04-02T10:07:28Z</time>
      </trkpt>
      <trkpt lat="45.2871" lon="5.44635">
        <ele>526.94</ele>
        <time>2015-04-02T10:07:37Z</time>
      </trkpt>
      <trkpt lat="45.28711" lon="5.44645">
        <ele>528.38</ele>
        <time>2015-04-02T10:07:45Z</time>
      </trkpt>
      <trkpt lat="45.28714" lon="5.44669">
        <ele>529.82</ele>
        <time>2015-04-02T10:08:05Z</time>
      </trkpt>
      <trkpt lat="45.28716" lon="5.44675">
        <ele>529.82</ele>
        <time>2015-04-02T10:08:10Z</time>
      </trkpt>
      <trkpt lat="45.2872" lon="5.44682">
        <ele>530.3</ele>
        <time>2015-04-02T10:08:18Z</time>
      </trkpt>
      <trkpt lat="45.28737" lon="5.4468">
        <ele>531.75</ele>
        <time>2015-04-02T10:08:35Z</time>
      </trkpt>
      <trkpt lat="45.28748" lon="5.44662">
        <ele>532.23</ele>
        <time>2015-04-02T10:08:52Z</time>
      </trkpt>
      <trkpt lat="45.28752" lon="5.44644">
        <ele>533.67</ele>
        <time>2015-04-02T10:09:08Z</time>
      </trkpt>
      <trkpt lat="45.28753" lon="5.44633">
        <ele>534.63</ele>
        <time>2015-04-02T10:09:32Z</time>
      </trkpt>
      <trkpt lat="45.28753" lon="5.44629">
        <ele>535.59</ele>
        <time>2015-04-02T10:09:39Z</time>
      </trkpt>
      <trkpt lat="45.28754" lon="5.44619">
        <ele>539.44</ele>
        <time>2015-04-02T10:09:56Z</time>
      </trkpt>
      <trkpt lat="45.28754" lon="5.44603">
        <ele>541.84</ele>
        <time>2015-04-02T10:10:16Z</time>
      </trkpt>
      <trkpt lat="45.2876" lon="5.44585">
        <ele>544.24</ele>
        <time>2015-04-02T10:10:36Z</time>
      </trkpt>
      <trkpt lat="45.2877" lon="5.4457">
        <ele>547.13</ele>
        <time>2015-04-02T10:10:56Z</time>
      </trkpt>
      <trkpt lat="45.28777" lon="5.44556">
        <ele>550.01</ele>
        <time>2015-04-02T10:11:14Z</time>
      </trkpt>
      <trkpt lat="45.28786" lon="5.44543">
        <ele>551.93</ele>
        <time>2015-04-02T10:11:30Z</time>
      </trkpt>
      <trkpt lat="45.28793" lon="5.44533">
        <ele>555.3</ele>
        <time>2015-04-02T10:11:43Z</time>
      </trkpt>
      <trkpt lat="45.28803" lon="5.44516">
        <ele>556.74</ele>
        <time>2015-04-02T10:12:02Z</time>
      </trkpt>
      <trkpt lat="45.2881" lon="5.44503">
        <ele>560.11</ele>
        <time>2015-04-02T10:12:18Z</time>
      </trkpt>
      <trkpt lat="45.28821" lon="5.44489">
        <ele>562.51</ele>
        <time>2015-04-02T10:12:38Z</time>
      </trkpt>
      <trkpt lat="45.28831" lon="5.44473">
        <ele>564.43</ele>
        <time>2015-04-02T10:12:57Z</time>
      </trkpt>
      <trkpt lat="45.28841" lon="5.44461">
        <ele>566.83</ele>
        <time>2015-04-02T10:13:15Z</time>
      </trkpt>
      <trkpt lat="45.28854" lon="5.44447">
        <ele>569.24</ele>
        <time>2015-04-02T10:13:34Z</time>
      </trkpt>
      <trkpt lat="45.28861" lon="5.44432">
        <ele>571.16</ele>
        <time>2015-04-02T10:13:50Z</time>
      </trkpt>
      <trkpt lat="45.28868" lon="5.44406">
        <ele>574.04</ele>
        <time>2015-04-02T10:14:10Z</time>
      </trkpt>
      <trkpt lat="45.28869" lon="5.44405">
        <ele>575.01</ele>
        <time>2015-04-02T10:14:12Z</time>
      </trkpt>
      <trkpt lat="45.2887" lon="5.44386">
        <ele>577.41</ele>
        <time>2015-04-02T10:14:31Z</time>
      </trkpt>
      <trkpt lat="45.28873" lon="5.44361">
        <ele>580.29</ele>
        <time>2015-04-02T10:14:52Z</time>
      </trkpt>
      <trkpt lat="45.28878" lon="5.44338">
        <ele>582.22</ele>
        <time>2015-04-02T10:15:12Z</time>
      </trkpt>
      <trkpt lat="45.2888" lon="5.44315">
        <ele>583.66</ele>
        <time>2015-04-02T10:15:28Z</time>
      </trkpt>
      <trkpt lat="45.28882" lon="5.44292">
        <ele>585.1</ele>
        <time>2015-04-02T10:15:49Z</time>
      </trkpt>
      <trkpt lat="45.28883" lon="5.44268">
        <ele>586.06</ele>
        <time>2015-04-02T10:16:06Z</time>
      </trkpt>
      <trkpt lat="45.28884" lon="5.44267">
        <ele>586.54</ele>
        <time>2015-04-02T10:16:07Z</time>
      </trkpt>
      <trkpt lat="45.28888" lon="5.44253">
        <ele>587.98</ele>
        <time>2015-04-02T10:16:19Z</time>
      </trkpt>
      <trkpt lat="45.28893" lon="5.4424">
        <ele>588.95</ele>
        <time>2015-04-02T10:16:30Z</time>
      </trkpt>
      <trkpt lat="45.28898" lon="5.44216">
        <ele>591.83</ele>
        <time>2015-04-02T10:16:51Z</time>
      </trkpt>
      <trkpt lat="45.28903" lon="5.44195">
        <ele>593.75</ele>
        <time>2015-04-02T10:17:10Z</time>
      </trkpt>
      <trkpt lat="45.28905" lon="5.44173">
        <ele>596.15</ele>
        <time>2015-04-02T10:17:31Z</time>
      </trkpt>
      <trkpt lat="45.28909" lon="5.44152">
        <ele>599.04</ele>
        <time>2015-04-02T10:17:52Z</time>
      </trkpt>
      <trkpt lat="45.28914" lon="5.44133">
        <ele>601.44</ele>
        <time>2015-04-02T10:18:12Z</time>
      </trkpt>
      <trkpt lat="45.28922" lon="5.44115">
        <ele>604.33</ele>
        <time>2015-04-02T10:18:33Z</time>
      </trkpt>
      <trkpt lat="45.28934" lon="5.44109">
        <ele>607.69</ele>
        <time>2015-04-02T10:18:52Z</time>
      </trkpt>
      <trkpt lat="45.28949" lon="5.44111">
        <ele>608.65</ele>
        <time>2015-04-02T10:19:13Z</time>
      </trkpt>
      <trkpt lat="45.28963" lon="5.44117">
        <ele>611.54</ele>
        <time>2015-04-02T10:19:31Z</time>
      </trkpt>
      <trkpt lat="45.28976" lon="5.44124">
        <ele>613.94</ele>
        <time>2015-04-02T10:19:50Z</time>
      </trkpt>
      <trkpt lat="45.28987" lon="5.44128">
        <ele>616.82</ele>
        <time>2015-04-02T10:20:08Z</time>
      </trkpt>
      <trkpt lat="45.29" lon="5.44128">
        <ele>619.23</ele>
        <time>2015-04-02T10:20:26Z</time>
      </trkpt>
      <trkpt lat="45.29015" lon="5.44125">
        <ele>621.15</ele>
        <time>2015-04-02T10:20:46Z</time>
      </trkpt>
      <trkpt lat="45.29017" lon="5.44125">
        <ele>622.59</ele>
        <time>2015-04-02T10:20:49Z</time>
      </trkpt>
      <trkpt lat="45.29026" lon="5.44119">
        <ele>624.03</ele>
        <time>2015-04-02T10:21:06Z</time>
      </trkpt>
      <trkpt lat="45.29037" lon="5.44101">
        <ele>627.4</ele>
        <time>2015-04-02T10:21:25Z</time>
      </trkpt>
      <trkpt lat="45.29043" lon="5.44088">
        <ele>629.32</ele>
        <time>2015-04-02T10:21:41Z</time>
      </trkpt>
      <trkpt lat="45.2905" lon="5.44069">
        <ele>631.24</ele>
        <time>2015-04-02T10:22:02Z</time>
      </trkpt>
      <trkpt lat="45.29056" lon="5.44049">
        <ele>633.65</ele>
        <time>2015-04-02T10:22:21Z</time>
      </trkpt>
      <trkpt lat="45.29063" lon="5.44026">
        <ele>636.53</ele>
        <time>2015-04-02T10:22:40Z</time>
      </trkpt>
      <trkpt lat="45.2907" lon="5.44009">
        <ele>637.01</ele>
        <time>2015-04-02T10:22:58Z</time>
      </trkpt>
      <trkpt lat="45.29077" lon="5.43989">
        <ele>639.41</ele>
        <time>2015-04-02T10:23:16Z</time>
      </trkpt>
      <trkpt lat="45.29084" lon="5.43969">
        <ele>640.86</ele>
        <time>2015-04-02T10:23:35Z</time>
      </trkpt>
      <trkpt lat="45.29091" lon="5.43945">
        <ele>642.78</ele>
        <time>2015-04-02T10:23:55Z</time>
      </trkpt>
      <trkpt lat="45.29097" lon="5.43929">
        <ele>645.66</ele>
        <time>2015-04-02T10:24:15Z</time>
      </trkpt>
      <trkpt lat="45.29095" lon="5.43922">
        <ele>646.62</ele>
        <time>2015-04-02T10:24:35Z</time>
      </trkpt>
      <trkpt lat="45.29104" lon="5.43909">
        <ele>647.59</ele>
        <time>2015-04-02T10:24:58Z</time>
      </trkpt>
      <trkpt lat="45.29109" lon="5.43902">
        <ele>648.55</ele>
        <time>2015-04-02T10:25:05Z</time>
      </trkpt>
      <trkpt lat="45.29121" lon="5.43883">
        <ele>649.99</ele>
        <time>2015-04-02T10:25:26Z</time>
      </trkpt>
      <trkpt lat="45.29132" lon="5.43869">
        <ele>650.95</ele>
        <time>2015-04-02T10:25:43Z</time>
      </trkpt>
      <trkpt lat="45.29143" lon="5.43848">
        <ele>653.35</ele>
        <time>2015-04-02T10:26:08Z</time>
      </trkpt>
      <trkpt lat="45.29156" lon="5.43834">
        <ele>656.24</ele>
        <time>2015-04-02T10:26:27Z</time>
      </trkpt>
      <trkpt lat="45.29161" lon="5.43822">
        <ele>657.68</ele>
        <time>2015-04-02T10:26:49Z</time>
      </trkpt>
      <trkpt lat="45.2917" lon="5.4381">
        <ele>659.12</ele>
        <time>2015-04-02T10:27:12Z</time>
      </trkpt>
      <trkpt lat="45.29171" lon="5.43808">
        <ele>659.12</ele>
        <time>2015-04-02T10:27:14Z</time>
      </trkpt>
      <trkpt lat="45.29179" lon="5.43795">
        <ele>660.56</ele>
        <time>2015-04-02T10:27:44Z</time>
      </trkpt>
      <trkpt lat="45.29181" lon="5.43791">
        <ele>660.56</ele>
        <time>2015-04-02T10:27:48Z</time>
      </trkpt>
      <trkpt lat="45.29192" lon="5.43774">
        <ele>662.49</ele>
        <time>2015-04-02T10:28:08Z</time>
      </trkpt>
      <trkpt lat="45.29203" lon="5.43759">
        <ele>663.93</ele>
        <time>2015-04-02T10:28:23Z</time>
      </trkpt>
      <trkpt lat="45.29215" lon="5.43742">
        <ele>666.33</ele>
        <time>2015-04-02T10:28:38Z</time>
      </trkpt>
      <trkpt lat="45.29229" lon="5.43739">
        <ele>668.25</ele>
        <time>2015-04-02T10:28:57Z</time>
      </trkpt>
      <trkpt lat="45.29229" lon="5.43744">
        <ele>667.77</ele>
        <time>2015-04-02T10:29:22Z</time>
      </trkpt>
      <trkpt lat="45.2923" lon="5.43745">
        <ele>667.77</ele>
        <time>2015-04-02T10:30:05Z</time>
      </trkpt>
      <trkpt lat="45.29231" lon="5.43744">
        <ele>668.25</ele>
        <time>2015-04-02T10:30:06Z</time>
      </trkpt>
      <trkpt lat="45.29241" lon="5.43747">
        <ele>669.7</ele>
        <time>2015-04-02T10:30:15Z</time>
      </trkpt>
      <trkpt lat="45.29257" lon="5.43764">
        <ele>672.1</ele>
        <time>2015-04-02T10:30:35Z</time>
      </trkpt>
      <trkpt lat="45.29269" lon="5.43774">
        <ele>674.98</ele>
        <time>2015-04-02T10:30:50Z</time>
      </trkpt>
      <trkpt lat="45.29284" lon="5.43788">
        <ele>677.87</ele>
        <time>2015-04-02T10:31:11Z</time>
      </trkpt>
      <trkpt lat="45.29295" lon="5.43797">
        <ele>679.31</ele>
        <time>2015-04-02T10:31:28Z</time>
      </trkpt>
      <trkpt lat="45.29307" lon="5.43805">
        <ele>682.67</ele>
        <time>2015-04-02T10:31:44Z</time>
      </trkpt>
      <trkpt lat="45.2932" lon="5.43809">
        <ele>684.12</ele>
        <time>2015-04-02T10:32:01Z</time>
      </trkpt>
      <trkpt lat="45.29336" lon="5.43811">
        <ele>685.56</ele>
        <time>2015-04-02T10:32:19Z</time>
      </trkpt>
      <trkpt lat="45.29351" lon="5.43814">
        <ele>687.96</ele>
        <time>2015-04-02T10:32:36Z</time>
      </trkpt>
      <trkpt lat="45.29359" lon="5.43815">
        <ele>689.4</ele>
        <time>2015-04-02T10:32:44Z</time>
      </trkpt>
      <trkpt lat="45.29362" lon="5.4382">
        <ele>689.88</ele>
        <time>2015-04-02T10:32:49Z</time>
      </trkpt>
      <trkpt lat="45.29364" lon="5.43823">
        <ele>689.88</ele>
        <time>2015-04-02T10:32:52Z</time>
      </trkpt>
      <trkpt lat="45.29365" lon="5.43826">
        <ele>689.88</ele>
        <time>2015-04-02T10:32:54Z</time>
      </trkpt>
      <trkpt lat="45.2937" lon="5.43865">
        <ele>688.44</ele>
        <time>2015-04-02T10:33:19Z</time>
      </trkpt>
      <trkpt lat="45.2937" lon="5.43871">
        <ele>687.96</ele>
        <time>2015-04-02T10:33:23Z</time>
      </trkpt>
      <trkpt lat="45.29368" lon="5.43911">
        <ele>687.48</ele>
        <time>2015-04-02T10:33:47Z</time>
      </trkpt>
      <trkpt lat="45.29363" lon="5.43943">
        <ele>685.56</ele>
        <time>2015-04-02T10:34:05Z</time>
      </trkpt>
      <trkpt lat="45.29362" lon="5.43952">
        <ele>685.56</ele>
        <time>2015-04-02T10:34:09Z</time>
      </trkpt>
      <trkpt lat="45.29347" lon="5.43973">
        <ele>685.56</ele>
        <time>2015-04-02T10:34:29Z</time>
      </trkpt>
      <trkpt lat="45.29336" lon="5.43978">
        <ele>686.04</ele>
        <time>2015-04-02T10:34:55Z</time>
      </trkpt>
      <trkpt lat="45.29332" lon="5.4398">
        <ele>686.04</ele>
        <time>2015-04-02T10:35:26Z</time>
      </trkpt>
      <trkpt lat="45.29325" lon="5.43982">
        <ele>686.52</ele>
        <time>2015-04-02T10:36:23Z</time>
      </trkpt>
      <trkpt lat="45.2933" lon="5.43989">
        <ele>687</ele>
        <time>2015-04-02T10:37:04Z</time>
      </trkpt>
      <trkpt lat="45.29329" lon="5.43986">
        <ele>687</ele>
        <time>2015-04-02T10:37:57Z</time>
      </trkpt>
      <trkpt lat="45.29322" lon="5.43981">
        <ele>686.52</ele>
        <time>2015-04-02T10:38:49Z</time>
      </trkpt>
      <trkpt lat="45.29325" lon="5.43976">
        <ele>686.52</ele>
        <time>2015-04-02T10:39:39Z</time>
      </trkpt>
      <trkpt lat="45.29324" lon="5.43981">
        <ele>687</ele>
        <time>2015-04-02T10:40:43Z</time>
      </trkpt>
      <trkpt lat="45.29322" lon="5.43979">
        <ele>686.52</ele>
        <time>2015-04-02T10:41:42Z</time>
      </trkpt>
      <trkpt lat="45.29325" lon="5.43982">
        <ele>687</ele>
        <time>2015-04-02T10:42:40Z</time>
      </trkpt>
      <trkpt lat="45.29326" lon="5.43985">
        <ele>686.52</ele>
        <time>2015-04-02T10:43:39Z</time>
      </trkpt>
      <trkpt lat="45.29326" lon="5.43984">
        <ele>687</ele>
        <time>2015-04-02T10:44:22Z</time>
      </trkpt>
      <trkpt lat="45.29322" lon="5.43981">
        <ele>687</ele>
        <time>2015-04-02T10:45:13Z</time>
      </trkpt>
      <trkpt lat="45.29323" lon="5.43981">
        <ele>686.52</ele>
        <time>2015-04-02T10:45:59Z</time>
      </trkpt>
      <trkpt lat="45.29325" lon="5.43978">
        <ele>686.52</ele>
        <time>2015-04-02T10:46:40Z</time>
      </trkpt>
      <trkpt lat="45.29329" lon="5.43978">
        <ele>686.04</ele>
        <time>2015-04-02T10:47:39Z</time>
      </trkpt>
      <trkpt lat="45.29329" lon="5.43978">
        <ele>686.04</ele>
        <time>2015-04-02T10:48:25Z</time>
      </trkpt>
      <trkpt lat="45.29332" lon="5.43981">
        <ele>685.08</ele>
        <time>2015-04-02T10:49:30Z</time>
      </trkpt>
      <trkpt lat="45.29328" lon="5.43976">
        <ele>685.08</ele>
        <time>2015-04-02T10:50:30Z</time>
      </trkpt>
      <trkpt lat="45.29328" lon="5.43977">
        <ele>685.08</ele>
        <time>2015-04-02T10:51:38Z</time>
      </trkpt>
      <trkpt lat="45.29325" lon="5.4398">
        <ele>683.63</ele>
        <time>2015-04-02T10:52:41Z</time>
      </trkpt>
      <trkpt lat="45.29327" lon="5.43981">
        <ele>684.6</ele>
        <time>2015-04-02T10:53:37Z</time>
      </trkpt>
      <trkpt lat="45.29324" lon="5.43981">
        <ele>684.12</ele>
        <time>2015-04-02T10:54:30Z</time>
      </trkpt>
      <trkpt lat="45.29331" lon="5.43982">
        <ele>684.6</ele>
        <time>2015-04-02T10:55:26Z</time>
      </trkpt>
      <trkpt lat="45.29321" lon="5.43972">
        <ele>684.6</ele>
        <time>2015-04-02T10:56:14Z</time>
      </trkpt>
      <trkpt lat="45.29323" lon="5.43977">
        <ele>684.12</ele>
        <time>2015-04-02T10:57:04Z</time>
      </trkpt>
      <trkpt lat="45.29323" lon="5.4398">
        <ele>685.08</ele>
        <time>2015-04-02T10:57:53Z</time>
      </trkpt>
      <trkpt lat="45.29326" lon="5.43977">
        <ele>686.04</ele>
        <time>2015-04-02T10:58:51Z</time>
      </trkpt>
      <trkpt lat="45.29322" lon="5.43968">
        <ele>686.04</ele>
        <time>2015-04-02T10:59:44Z</time>
      </trkpt>
      <trkpt lat="45.29324" lon="5.43976">
        <ele>685.08</ele>
        <time>2015-04-02T11:00:31Z</time>
      </trkpt>
      <trkpt lat="45.29322" lon="5.43973">
        <ele>684.6</ele>
        <time>2015-04-02T11:01:24Z</time>
      </trkpt>
      <trkpt lat="45.29328" lon="5.43976">
        <ele>685.08</ele>
        <time>2015-04-02T11:02:17Z</time>
      </trkpt>
      <trkpt lat="45.29328" lon="5.43979">
        <ele>684.12</ele>
        <time>2015-04-02T11:03:09Z</time>
      </trkpt>
      <trkpt lat="45.29331" lon="5.43973">
        <ele>684.6</ele>
        <time>2015-04-02T11:03:59Z</time>
      </trkpt>
      <trkpt lat="45.2933" lon="5.4397">
        <ele>684.6</ele>
        <time>2015-04-02T11:04:59Z</time>
      </trkpt>
      <trkpt lat="45.2933" lon="5.43978">
        <ele>683.15</ele>
        <time>2015-04-02T11:06:10Z</time>
      </trkpt>
      <trkpt lat="45.29331" lon="5.43976">
        <ele>683.63</ele>
        <time>2015-04-02T11:07:00Z</time>
      </trkpt>
      <trkpt lat="45.29328" lon="5.43967">
        <ele>684.12</ele>
        <time>2015-04-02T11:07:54Z</time>
      </trkpt>
      <trkpt lat="45.29328" lon="5.43973">
        <ele>683.15</ele>
        <time>2015-04-02T11:08:51Z</time>
      </trkpt>
      <trkpt lat="45.29323" lon="5.43969">
        <ele>683.15</ele>
        <time>2015-04-02T11:09:43Z</time>
      </trkpt>
      <trkpt lat="45.29325" lon="5.43977">
        <ele>683.15</ele>
        <time>2015-04-02T11:10:35Z</time>
      </trkpt>
      <trkpt lat="45.29324" lon="5.43975">
        <ele>682.67</ele>
        <time>2015-04-02T11:11:18Z</time>
      </trkpt>
      <trkpt lat="45.2933" lon="5.43976">
        <ele>682.67</ele>
        <time>2015-04-02T11:12:01Z</time>
      </trkpt>
      <trkpt lat="45.29326" lon="5.43964">
        <ele>682.67</ele>
        <time>2015-04-02T11:12:45Z</time>
      </trkpt>
      <trkpt lat="45.29327" lon="5.43967">
        <ele>682.67</ele>
        <time>2015-04-02T11:13:36Z</time>
      </trkpt>
      <trkpt lat="45.29329" lon="5.43971">
        <ele>683.63</ele>
        <time>2015-04-02T11:14:30Z</time>
      </trkpt>
      <trkpt lat="45.29326" lon="5.43969">
        <ele>684.6</ele>
        <time>2015-04-02T11:14:54Z</time>
      </trkpt>
      <trkpt lat="45.29331" lon="5.43975">
        <ele>684.6</ele>
        <time>2015-04-02T11:15:16Z</time>
      </trkpt>
      <trkpt lat="45.29338" lon="5.43975">
        <ele>684.12</ele>
        <time>2015-04-02T11:15:57Z</time>
      </trkpt>
      <trkpt lat="45.29334" lon="5.43972">
        <ele>684.6</ele>
        <time>2015-04-02T11:16:29Z</time>
      </trkpt>
      <trkpt lat="45.29331" lon="5.43978">
        <ele>684.6</ele>
        <time>2015-04-02T11:17:19Z</time>
      </trkpt>
      <trkpt lat="45.29332" lon="5.43977">
        <ele>684.6</ele>
        <time>2015-04-02T11:18:06Z</time>
      </trkpt>
      <trkpt lat="45.29331" lon="5.43978">
        <ele>685.08</ele>
        <time>2015-04-02T11:18:42Z</time>
      </trkpt>
      <trkpt lat="45.29334" lon="5.43984">
        <ele>684.6</ele>
        <time>2015-04-02T11:19:19Z</time>
      </trkpt>
      <trkpt lat="45.29338" lon="5.43981">
        <ele>685.56</ele>
        <time>2015-04-02T11:19:49Z</time>
      </trkpt>
      <trkpt lat="45.29335" lon="5.43979">
        <ele>685.08</ele>
        <time>2015-04-02T11:20:27Z</time>
      </trkpt>
      <trkpt lat="45.29335" lon="5.43977">
        <ele>685.08</ele>
        <time>2015-04-02T11:21:03Z</time>
      </trkpt>
      <trkpt lat="45.29336" lon="5.43979">
        <ele>685.56</ele>
        <time>2015-04-02T11:21:34Z</time>
      </trkpt>
      <trkpt lat="45.29336" lon="5.43977">
        <ele>685.56</ele>
        <time>2015-04-02T11:22:09Z</time>
      </trkpt>
      <trkpt lat="45.29335" lon="5.43975">
        <ele>684.6</ele>
        <time>2015-04-02T11:22:42Z</time>
      </trkpt>
      <trkpt lat="45.29343" lon="5.43971">
        <ele>685.08</ele>
        <time>2015-04-02T11:23:16Z</time>
      </trkpt>
      <trkpt lat="45.29352" lon="5.43955">
        <ele>684.6</ele>
        <time>2015-04-02T11:23:40Z</time>
      </trkpt>
      <trkpt lat="45.29355" lon="5.43936">
        <ele>685.56</ele>
        <time>2015-04-02T11:23:58Z</time>
      </trkpt>
      <trkpt lat="45.29359" lon="5.43912">
        <ele>686.04</ele>
        <time>2015-04-02T11:24:18Z</time>
      </trkpt>
      <trkpt lat="45.29359" lon="5.43903">
        <ele>686.04</ele>
        <time>2015-04-02T11:24:25Z</time>
      </trkpt>
      <trkpt lat="45.29359" lon="5.439">
        <ele>686.04</ele>
        <time>2015-04-02T11:24:28Z</time>
      </trkpt>
      <trkpt lat="45.29361" lon="5.43876">
        <ele>687</ele>
        <time>2015-04-02T11:24:45Z</time>
      </trkpt>
      <trkpt lat="45.29361" lon="5.43855">
        <ele>687.96</ele>
        <time>2015-04-02T11:24:59Z</time>
      </trkpt>
      <trkpt lat="45.29364" lon="5.43836">
        <ele>687.96</ele>
        <time>2015-04-02T11:25:12Z</time>
      </trkpt>
      <trkpt lat="45.29365" lon="5.43831">
        <ele>688.44</ele>
        <time>2015-04-02T11:25:15Z</time>
      </trkpt>
      <trkpt lat="45.2937" lon="5.438">
        <ele>689.88</ele>
        <time>2015-04-02T11:25:35Z</time>
      </trkpt>
      <trkpt lat="45.2938" lon="5.43774">
        <ele>690.84</ele>
        <time>2015-04-02T11:25:56Z</time>
      </trkpt>
      <trkpt lat="45.29391" lon="5.43751">
        <ele>691.33</ele>
        <time>2015-04-02T11:26:19Z</time>
      </trkpt>
      <trkpt lat="45.29404" lon="5.43748">
        <ele>691.81</ele>
        <time>2015-04-02T11:26:34Z</time>
      </trkpt>
      <trkpt lat="45.29417" lon="5.43742">
        <ele>692.77</ele>
        <time>2015-04-02T11:26:52Z</time>
      </trkpt>
      <trkpt lat="45.29431" lon="5.43725">
        <ele>692.29</ele>
        <time>2015-04-02T11:27:12Z</time>
      </trkpt>
      <trkpt lat="45.29443" lon="5.43706">
        <ele>693.25</ele>
        <time>2015-04-02T11:27:33Z</time>
      </trkpt>
      <trkpt lat="45.29456" lon="5.43687">
        <ele>694.69</ele>
        <time>2015-04-02T11:27:54Z</time>
      </trkpt>
      <trkpt lat="45.29467" lon="5.43672">
        <ele>697.09</ele>
        <time>2015-04-02T11:28:14Z</time>
      </trkpt>
      <trkpt lat="45.29479" lon="5.43662">
        <ele>699.5</ele>
        <time>2015-04-02T11:28:34Z</time>
      </trkpt>
      <trkpt lat="45.29489" lon="5.43654">
        <ele>700.46</ele>
        <time>2015-04-02T11:28:48Z</time>
      </trkpt>
      <trkpt lat="45.29501" lon="5.43637">
        <ele>702.86</ele>
        <time>2015-04-02T11:29:08Z</time>
      </trkpt>
      <trkpt lat="45.29512" lon="5.43616">
        <ele>703.82</ele>
        <time>2015-04-02T11:29:27Z</time>
      </trkpt>
      <trkpt lat="45.29518" lon="5.43598">
        <ele>702.38</ele>
        <time>2015-04-02T11:29:43Z</time>
      </trkpt>
      <trkpt lat="45.29527" lon="5.43574">
        <ele>702.38</ele>
        <time>2015-04-02T11:30:02Z</time>
      </trkpt>
      <trkpt lat="45.29535" lon="5.4355">
        <ele>703.82</ele>
        <time>2015-04-02T11:30:19Z</time>
      </trkpt>
      <trkpt lat="45.29545" lon="5.4353">
        <ele>702.86</ele>
        <time>2015-04-02T11:30:40Z</time>
      </trkpt>
      <trkpt lat="45.29547" lon="5.43526">
        <ele>702.86</ele>
        <time>2015-04-02T11:30:45Z</time>
      </trkpt>
      <trkpt lat="45.29548" lon="5.43524">
        <ele>703.34</ele>
        <time>2015-04-02T11:30:47Z</time>
      </trkpt>
      <trkpt lat="45.29561" lon="5.43496">
        <ele>702.86</ele>
        <time>2015-04-02T11:31:10Z</time>
      </trkpt>
      <trkpt lat="45.2957" lon="5.43473">
        <ele>703.82</ele>
        <time>2015-04-02T11:31:29Z</time>
      </trkpt>
      <trkpt lat="45.29586" lon="5.43461">
        <ele>705.26</ele>
        <time>2015-04-02T11:31:49Z</time>
      </trkpt>
      <trkpt lat="45.29589" lon="5.43459">
        <ele>705.26</ele>
        <time>2015-04-02T11:31:53Z</time>
      </trkpt>
      <trkpt lat="45.29604" lon="5.43457">
        <ele>706.71</ele>
        <time>2015-04-02T11:32:11Z</time>
      </trkpt>
      <trkpt lat="45.29616" lon="5.4345">
        <ele>708.15</ele>
        <time>2015-04-02T11:32:24Z</time>
      </trkpt>
      <trkpt lat="45.29639" lon="5.43433">
        <ele>706.71</ele>
        <time>2015-04-02T11:32:48Z</time>
      </trkpt>
      <trkpt lat="45.2966" lon="5.43426">
        <ele>704.78</ele>
        <time>2015-04-02T11:33:10Z</time>
      </trkpt>
      <trkpt lat="45.29682" lon="5.43421">
        <ele>703.82</ele>
        <time>2015-04-02T11:33:30Z</time>
      </trkpt>
      <trkpt lat="45.29706" lon="5.43428">
        <ele>701.9</ele>
        <time>2015-04-02T11:33:54Z</time>
      </trkpt>
      <trkpt lat="45.29724" lon="5.43441">
        <ele>700.94</ele>
        <time>2015-04-02T11:34:15Z</time>
      </trkpt>
      <trkpt lat="45.29726" lon="5.43442">
        <ele>700.46</ele>
        <time>2015-04-02T11:34:17Z</time>
      </trkpt>
      <trkpt lat="45.29729" lon="5.43443">
        <ele>700.46</ele>
        <time>2015-04-02T11:34:20Z</time>
      </trkpt>
      <trkpt lat="45.29749" lon="5.43452">
        <ele>698.05</ele>
        <time>2015-04-02T11:34:42Z</time>
      </trkpt>
      <trkpt lat="45.29769" lon="5.43461">
        <ele>697.09</ele>
        <time>2015-04-02T11:35:02Z</time>
      </trkpt>
      <trkpt lat="45.29785" lon="5.43454">
        <ele>694.69</ele>
        <time>2015-04-02T11:35:21Z</time>
      </trkpt>
      <trkpt lat="45.29789" lon="5.43442">
        <ele>694.21</ele>
        <time>2015-04-02T11:35:38Z</time>
      </trkpt>
      <trkpt lat="45.29797" lon="5.43446">
        <ele>696.61</ele>
        <time>2015-04-02T11:35:53Z</time>
      </trkpt>
      <trkpt lat="45.29806" lon="5.43455">
        <ele>699.98</ele>
        <time>2015-04-02T11:36:10Z</time>
      </trkpt>
      <trkpt lat="45.29815" lon="5.43462">
        <ele>702.38</ele>
        <time>2015-04-02T11:36:26Z</time>
      </trkpt>
      <trkpt lat="45.29832" lon="5.43478">
        <ele>703.34</ele>
        <time>2015-04-02T11:36:44Z</time>
      </trkpt>
      <trkpt lat="45.29838" lon="5.43485">
        <ele>703.82</ele>
        <time>2015-04-02T11:36:51Z</time>
      </trkpt>
      <trkpt lat="45.29848" lon="5.43506">
        <ele>705.26</ele>
        <time>2015-04-02T11:37:07Z</time>
      </trkpt>
      <trkpt lat="45.29855" lon="5.43522">
        <ele>706.71</ele>
        <time>2015-04-02T11:37:24Z</time>
      </trkpt>
      <trkpt lat="45.29866" lon="5.43538">
        <ele>708.15</ele>
        <time>2015-04-02T11:37:44Z</time>
      </trkpt>
      <trkpt lat="45.29879" lon="5.43556">
        <ele>710.55</ele>
        <time>2015-04-02T11:38:07Z</time>
      </trkpt>
      <trkpt lat="45.29871" lon="5.43546">
        <ele>716.32</ele>
        <time>2015-04-02T11:38:40Z</time>
      </trkpt>
      <trkpt lat="45.29896" lon="5.43598">
        <ele>716.32</ele>
        <time>2015-04-02T11:38:41Z</time>
      </trkpt>
      <trkpt lat="45.29896" lon="5.43615">
        <ele>719.2</ele>
        <time>2015-04-02T11:38:57Z</time>
      </trkpt>
      <trkpt lat="45.29901" lon="5.43639">
        <ele>720.16</ele>
        <time>2015-04-02T11:39:17Z</time>
      </trkpt>
      <trkpt lat="45.29907" lon="5.4365">
        <ele>721.61</ele>
        <time>2015-04-02T11:39:35Z</time>
      </trkpt>
      <trkpt lat="45.29911" lon="5.43661">
        <ele>723.05</ele>
        <time>2015-04-02T11:39:51Z</time>
      </trkpt>
      <trkpt lat="45.29914" lon="5.43676">
        <ele>724.49</ele>
        <time>2015-04-02T11:40:08Z</time>
      </trkpt>
      <trkpt lat="45.29925" lon="5.43694">
        <ele>725.93</ele>
        <time>2015-04-02T11:40:27Z</time>
      </trkpt>
      <trkpt lat="45.29922" lon="5.43739">
        <ele>727.86</ele>
        <time>2015-04-02T11:40:46Z</time>
      </trkpt>
      <trkpt lat="45.29923" lon="5.43749">
        <ele>728.82</ele>
        <time>2015-04-02T11:40:55Z</time>
      </trkpt>
      <trkpt lat="45.29923" lon="5.43751">
        <ele>729.3</ele>
        <time>2015-04-02T11:40:58Z</time>
      </trkpt>
      <trkpt lat="45.29928" lon="5.43769">
        <ele>730.74</ele>
        <time>2015-04-02T11:41:15Z</time>
      </trkpt>
      <trkpt lat="45.29928" lon="5.43774">
        <ele>731.22</ele>
        <time>2015-04-02T11:41:19Z</time>
      </trkpt>
      <trkpt lat="45.29935" lon="5.43792">
        <ele>732.66</ele>
        <time>2015-04-02T11:41:40Z</time>
      </trkpt>
      <trkpt lat="45.2994" lon="5.43782">
        <ele>735.55</ele>
        <time>2015-04-02T11:41:57Z</time>
      </trkpt>
      <trkpt lat="45.29945" lon="5.43766">
        <ele>736.99</ele>
        <time>2015-04-02T11:42:17Z</time>
      </trkpt>
      <trkpt lat="45.29947" lon="5.43756">
        <ele>737.47</ele>
        <time>2015-04-02T11:42:35Z</time>
      </trkpt>
      <trkpt lat="45.2995" lon="5.43737">
        <ele>737.95</ele>
        <time>2015-04-02T11:42:54Z</time>
      </trkpt>
      <trkpt lat="45.29955" lon="5.43715">
        <ele>739.39</ele>
        <time>2015-04-02T11:43:14Z</time>
      </trkpt>
      <trkpt lat="45.29962" lon="5.43694">
        <ele>740.83</ele>
        <time>2015-04-02T11:43:34Z</time>
      </trkpt>
      <trkpt lat="45.29967" lon="5.43673">
        <ele>742.76</ele>
        <time>2015-04-02T11:43:54Z</time>
      </trkpt>
      <trkpt lat="45.2997" lon="5.43664">
        <ele>743.72</ele>
        <time>2015-04-02T11:44:04Z</time>
      </trkpt>
      <trkpt lat="45.29975" lon="5.43644">
        <ele>745.64</ele>
        <time>2015-04-02T11:44:24Z</time>
      </trkpt>
      <trkpt lat="45.29981" lon="5.43628">
        <ele>747.56</ele>
        <time>2015-04-02T11:44:42Z</time>
      </trkpt>
      <trkpt lat="45.29985" lon="5.43605">
        <ele>749.97</ele>
        <time>2015-04-02T11:45:04Z</time>
      </trkpt>
      <trkpt lat="45.29987" lon="5.43591">
        <ele>751.89</ele>
        <time>2015-04-02T11:45:23Z</time>
      </trkpt>
      <trkpt lat="45.29989" lon="5.43581">
        <ele>754.29</ele>
        <time>2015-04-02T11:45:37Z</time>
      </trkpt>
      <trkpt lat="45.29996" lon="5.4357">
        <ele>757.18</ele>
        <time>2015-04-02T11:45:57Z</time>
      </trkpt>
      <trkpt lat="45.30005" lon="5.4356">
        <ele>760.06</ele>
        <time>2015-04-02T11:46:13Z</time>
      </trkpt>
      <trkpt lat="45.30013" lon="5.43553">
        <ele>761.98</ele>
        <time>2015-04-02T11:46:33Z</time>
      </trkpt>
      <trkpt lat="45.30021" lon="5.43551">
        <ele>762.46</ele>
        <time>2015-04-02T11:46:54Z</time>
      </trkpt>
      <trkpt lat="45.30021" lon="5.43552">
        <ele>761.02</ele>
        <time>2015-04-02T11:46:57Z</time>
      </trkpt>
      <trkpt lat="45.3002" lon="5.43554">
        <ele>761.02</ele>
        <time>2015-04-02T11:47:40Z</time>
      </trkpt>
      <trkpt lat="45.30022" lon="5.43553">
        <ele>760.54</ele>
        <time>2015-04-02T11:48:10Z</time>
      </trkpt>
      <trkpt lat="45.30024" lon="5.43551">
        <ele>761.98</ele>
        <time>2015-04-02T11:48:34Z</time>
      </trkpt>
      <trkpt lat="45.30023" lon="5.4355">
        <ele>761.5</ele>
        <time>2015-04-02T11:49:09Z</time>
      </trkpt>
      <trkpt lat="45.30021" lon="5.43551">
        <ele>761.98</ele>
        <time>2015-04-02T11:49:35Z</time>
      </trkpt>
      <trkpt lat="45.30021" lon="5.43549">
        <ele>761.5</ele>
        <time>2015-04-02T11:50:05Z</time>
      </trkpt>
      <trkpt lat="45.30021" lon="5.43549">
        <ele>761.98</ele>
        <time>2015-04-02T11:50:31Z</time>
      </trkpt>
      <trkpt lat="45.30021" lon="5.43551">
        <ele>761.5</ele>
        <time>2015-04-02T11:51:03Z</time>
      </trkpt>
      <trkpt lat="45.30022" lon="5.4358">
        <ele>760.54</ele>
        <time>2015-04-02T11:51:30Z</time>
      </trkpt>
      <trkpt lat="45.3002" lon="5.43609">
        <ele>760.06</ele>
        <time>2015-04-02T11:51:51Z</time>
      </trkpt>
      <trkpt lat="45.3002" lon="5.43637">
        <ele>758.62</ele>
        <time>2015-04-02T11:52:13Z</time>
      </trkpt>
      <trkpt lat="45.3002" lon="5.43665">
        <ele>759.58</ele>
        <time>2015-04-02T11:52:33Z</time>
      </trkpt>
      <trkpt lat="45.30021" lon="5.43696">
        <ele>758.62</ele>
        <time>2015-04-02T11:52:54Z</time>
      </trkpt>
      <trkpt lat="45.30021" lon="5.43698">
        <ele>758.62</ele>
        <time>2015-04-02T11:52:55Z</time>
      </trkpt>
      <trkpt lat="45.30024" lon="5.43731">
        <ele>758.62</ele>
        <time>2015-04-02T11:53:19Z</time>
      </trkpt>
      <trkpt lat="45.30028" lon="5.43759">
        <ele>759.58</ele>
        <time>2015-04-02T11:53:40Z</time>
      </trkpt>
      <trkpt lat="45.30035" lon="5.43789">
        <ele>760.06</ele>
        <time>2015-04-02T11:54:01Z</time>
      </trkpt>
      <trkpt lat="45.30041" lon="5.43804">
        <ele>760.54</ele>
        <time>2015-04-02T11:54:18Z</time>
      </trkpt>
      <trkpt lat="45.30041" lon="5.43803">
        <ele>760.54</ele>
        <time>2015-04-02T11:54:19Z</time>
      </trkpt>
      <trkpt lat="45.30043" lon="5.438">
        <ele>761.98</ele>
        <time>2015-04-02T11:54:37Z</time>
      </trkpt>
      <trkpt lat="45.30049" lon="5.43806">
        <ele>761.02</ele>
        <time>2015-04-02T11:54:54Z</time>
      </trkpt>
      <trkpt lat="45.3005" lon="5.4382">
        <ele>761.02</ele>
        <time>2015-04-02T11:55:11Z</time>
      </trkpt>
      <trkpt lat="45.30049" lon="5.43827">
        <ele>761.5</ele>
        <time>2015-04-02T11:55:33Z</time>
      </trkpt>
      <trkpt lat="45.30052" lon="5.43833">
        <ele>761.5</ele>
        <time>2015-04-02T11:55:51Z</time>
      </trkpt>
      <trkpt lat="45.30052" lon="5.43837">
        <ele>761.5</ele>
        <time>2015-04-02T11:56:15Z</time>
      </trkpt>
      <trkpt lat="45.30048" lon="5.43837">
        <ele>760.54</ele>
        <time>2015-04-02T11:56:44Z</time>
      </trkpt>
      <trkpt lat="45.30049" lon="5.43835">
        <ele>760.54</ele>
        <time>2015-04-02T11:57:13Z</time>
      </trkpt>
      <trkpt lat="45.30051" lon="5.43841">
        <ele>761.02</ele>
        <time>2015-04-02T11:57:46Z</time>
      </trkpt>
      <trkpt lat="45.30065" lon="5.43851">
        <ele>761.02</ele>
        <time>2015-04-02T11:58:15Z</time>
      </trkpt>
      <trkpt lat="45.30075" lon="5.43868">
        <ele>761.98</ele>
        <time>2015-04-02T11:58:35Z</time>
      </trkpt>
      <trkpt lat="45.30087" lon="5.43887">
        <ele>763.42</ele>
        <time>2015-04-02T11:58:55Z</time>
      </trkpt>
      <trkpt lat="45.30101" lon="5.43912">
        <ele>764.39</ele>
        <time>2015-04-02T11:59:15Z</time>
      </trkpt>
      <trkpt lat="45.30115" lon="5.43935">
        <ele>764.87</ele>
        <time>2015-04-02T11:59:35Z</time>
      </trkpt>
      <trkpt lat="45.30121" lon="5.43953">
        <ele>766.31</ele>
        <time>2015-04-02T11:59:53Z</time>
      </trkpt>
      <trkpt lat="45.30128" lon="5.43959">
        <ele>766.79</ele>
        <time>2015-04-02T12:00:15Z</time>
      </trkpt>
      <trkpt lat="45.30129" lon="5.43964">
        <ele>766.79</ele>
        <time>2015-04-02T12:00:43Z</time>
      </trkpt>
      <trkpt lat="45.30137" lon="5.43986">
        <ele>766.79</ele>
        <time>2015-04-02T12:01:01Z</time>
      </trkpt>
      <trkpt lat="45.30142" lon="5.44006">
        <ele>766.79</ele>
        <time>2015-04-02T12:01:18Z</time>
      </trkpt>
      <trkpt lat="45.30149" lon="5.44035">
        <ele>767.27</ele>
        <time>2015-04-02T12:01:42Z</time>
      </trkpt>
      <trkpt lat="45.30151" lon="5.44047">
        <ele>767.75</ele>
        <time>2015-04-02T12:01:51Z</time>
      </trkpt>
      <trkpt lat="45.30151" lon="5.44076">
        <ele>768.71</ele>
        <time>2015-04-02T12:02:11Z</time>
      </trkpt>
      <trkpt lat="45.30154" lon="5.44093">
        <ele>767.27</ele>
        <time>2015-04-02T12:02:24Z</time>
      </trkpt>
      <trkpt lat="45.30163" lon="5.44126">
        <ele>767.75</ele>
        <time>2015-04-02T12:02:48Z</time>
      </trkpt>
      <trkpt lat="45.30166" lon="5.44136">
        <ele>768.23</ele>
        <time>2015-04-02T12:02:56Z</time>
      </trkpt>
      <trkpt lat="45.30167" lon="5.44139">
        <ele>767.75</ele>
        <time>2015-04-02T12:02:58Z</time>
      </trkpt>
      <trkpt lat="45.30176" lon="5.44165">
        <ele>766.31</ele>
        <time>2015-04-02T12:03:17Z</time>
      </trkpt>
      <trkpt lat="45.30181" lon="5.44199">
        <ele>764.87</ele>
        <time>2015-04-02T12:03:39Z</time>
      </trkpt>
      <trkpt lat="45.30184" lon="5.44221">
        <ele>763.9</ele>
        <time>2015-04-02T12:03:55Z</time>
      </trkpt>
      <trkpt lat="45.30187" lon="5.44243">
        <ele>762.94</ele>
        <time>2015-04-02T12:04:09Z</time>
      </trkpt>
      <trkpt lat="45.30188" lon="5.44251">
        <ele>762.94</ele>
        <time>2015-04-02T12:04:14Z</time>
      </trkpt>
      <trkpt lat="45.30191" lon="5.44265">
        <ele>762.46</ele>
        <time>2015-04-02T12:04:25Z</time>
      </trkpt>
      <trkpt lat="45.30193" lon="5.44274">
        <ele>762.46</ele>
        <time>2015-04-02T12:04:31Z</time>
      </trkpt>
      <trkpt lat="45.30195" lon="5.44308">
        <ele>760.54</ele>
        <time>2015-04-02T12:04:54Z</time>
      </trkpt>
      <trkpt lat="45.30199" lon="5.44321">
        <ele>759.58</ele>
        <time>2015-04-02T12:05:03Z</time>
      </trkpt>
      <trkpt lat="45.30202" lon="5.44335">
        <ele>759.58</ele>
        <time>2015-04-02T12:05:13Z</time>
      </trkpt>
      <trkpt lat="45.30205" lon="5.44346">
        <ele>758.62</ele>
        <time>2015-04-02T12:05:21Z</time>
      </trkpt>
      <trkpt lat="45.30209" lon="5.44373">
        <ele>756.69</ele>
        <time>2015-04-02T12:05:40Z</time>
      </trkpt>
      <trkpt lat="45.30209" lon="5.44382">
        <ele>756.69</ele>
        <time>2015-04-02T12:05:47Z</time>
      </trkpt>
      <trkpt lat="45.30214" lon="5.44404">
        <ele>753.81</ele>
        <time>2015-04-02T12:06:04Z</time>
      </trkpt>
      <trkpt lat="45.30218" lon="5.44421">
        <ele>750.45</ele>
        <time>2015-04-02T12:06:15Z</time>
      </trkpt>
      <trkpt lat="45.30219" lon="5.44425">
        <ele>751.41</ele>
        <time>2015-04-02T12:06:17Z</time>
      </trkpt>
      <trkpt lat="45.30224" lon="5.44449">
        <ele>749</ele>
        <time>2015-04-02T12:06:34Z</time>
      </trkpt>
      <trkpt lat="45.30226" lon="5.44471">
        <ele>748.04</ele>
        <time>2015-04-02T12:06:48Z</time>
      </trkpt>
      <trkpt lat="45.30226" lon="5.4448">
        <ele>747.08</ele>
        <time>2015-04-02T12:06:54Z</time>
      </trkpt>
      <trkpt lat="45.30228" lon="5.44493">
        <ele>746.6</ele>
        <time>2015-04-02T12:07:02Z</time>
      </trkpt>
      <trkpt lat="45.30228" lon="5.44509">
        <ele>745.64</ele>
        <time>2015-04-02T12:07:22Z</time>
      </trkpt>
      <trkpt lat="45.30221" lon="5.44508">
        <ele>743.72</ele>
        <time>2015-04-02T12:07:53Z</time>
      </trkpt>
      <trkpt lat="45.30214" lon="5.4451">
        <ele>740.83</ele>
        <time>2015-04-02T12:08:06Z</time>
      </trkpt>
      <trkpt lat="45.30206" lon="5.44506">
        <ele>737.47</ele>
        <time>2015-04-02T12:08:22Z</time>
      </trkpt>
      <trkpt lat="45.30197" lon="5.44504">
        <ele>734.58</ele>
        <time>2015-04-02T12:08:37Z</time>
      </trkpt>
      <trkpt lat="45.30187" lon="5.44504">
        <ele>731.7</ele>
        <time>2015-04-02T12:08:56Z</time>
      </trkpt>
      <trkpt lat="45.3018" lon="5.44506">
        <ele>730.26</ele>
        <time>2015-04-02T12:09:12Z</time>
      </trkpt>
      <trkpt lat="45.30168" lon="5.44506">
        <ele>726.89</ele>
        <time>2015-04-02T12:09:24Z</time>
      </trkpt>
      <trkpt lat="45.30159" lon="5.44504">
        <ele>723.53</ele>
        <time>2015-04-02T12:09:35Z</time>
      </trkpt>
      <trkpt lat="45.30147" lon="5.445">
        <ele>720.65</ele>
        <time>2015-04-02T12:09:49Z</time>
      </trkpt>
      <trkpt lat="45.30146" lon="5.44498">
        <ele>719.68</ele>
        <time>2015-04-02T12:09:51Z</time>
      </trkpt>
      <trkpt lat="45.30134" lon="5.4449">
        <ele>716.32</ele>
        <time>2015-04-02T12:10:06Z</time>
      </trkpt>
      <trkpt lat="45.30123" lon="5.44481">
        <ele>714.4</ele>
        <time>2015-04-02T12:10:22Z</time>
      </trkpt>
      <trkpt lat="45.30115" lon="5.44461">
        <ele>711.99</ele>
        <time>2015-04-02T12:10:39Z</time>
      </trkpt>
      <trkpt lat="45.30099" lon="5.44444">
        <ele>708.15</ele>
        <time>2015-04-02T12:10:59Z</time>
      </trkpt>
      <trkpt lat="45.3009" lon="5.44434">
        <ele>705.26</ele>
        <time>2015-04-02T12:11:21Z</time>
      </trkpt>
      <trkpt lat="45.30082" lon="5.44428">
        <ele>702.38</ele>
        <time>2015-04-02T12:11:38Z</time>
      </trkpt>
      <trkpt lat="45.30077" lon="5.44419">
        <ele>699.5</ele>
        <time>2015-04-02T12:11:51Z</time>
      </trkpt>
      <trkpt lat="45.30069" lon="5.44409">
        <ele>696.13</ele>
        <time>2015-04-02T12:12:04Z</time>
      </trkpt>
      <trkpt lat="45.30061" lon="5.44396">
        <ele>693.25</ele>
        <time>2015-04-02T12:12:19Z</time>
      </trkpt>
      <trkpt lat="45.30059" lon="5.44392">
        <ele>692.29</ele>
        <time>2015-04-02T12:12:25Z</time>
      </trkpt>
      <trkpt lat="45.30042" lon="5.44383">
        <ele>688.92</ele>
        <time>2015-04-02T12:12:46Z</time>
      </trkpt>
      <trkpt lat="45.3004" lon="5.44393">
        <ele>685.56</ele>
        <time>2015-04-02T12:12:59Z</time>
      </trkpt>
      <trkpt lat="45.30044" lon="5.44414">
        <ele>682.67</ele>
        <time>2015-04-02T12:13:20Z</time>
      </trkpt>
      <trkpt lat="45.30047" lon="5.44436">
        <ele>679.79</ele>
        <time>2015-04-02T12:13:40Z</time>
      </trkpt>
      <trkpt lat="45.30049" lon="5.44454">
        <ele>676.42</ele>
        <time>2015-04-02T12:13:59Z</time>
      </trkpt>
      <trkpt lat="45.30048" lon="5.4447">
        <ele>674.02</ele>
        <time>2015-04-02T12:14:17Z</time>
      </trkpt>
      <trkpt lat="45.30046" lon="5.44485">
        <ele>670.66</ele>
        <time>2015-04-02T12:14:32Z</time>
      </trkpt>
      <trkpt lat="45.30041" lon="5.44499">
        <ele>667.77</ele>
        <time>2015-04-02T12:14:47Z</time>
      </trkpt>
      <trkpt lat="45.30039" lon="5.44515">
        <ele>664.41</ele>
        <time>2015-04-02T12:15:00Z</time>
      </trkpt>
      <trkpt lat="45.30037" lon="5.44527">
        <ele>660.56</ele>
        <time>2015-04-02T12:15:12Z</time>
      </trkpt>
      <trkpt lat="45.30032" lon="5.44544">
        <ele>658.16</ele>
        <time>2015-04-02T12:15:28Z</time>
      </trkpt>
      <trkpt lat="45.30032" lon="5.44546">
        <ele>657.2</ele>
        <time>2015-04-02T12:15:30Z</time>
      </trkpt>
      <trkpt lat="45.30026" lon="5.4456">
        <ele>654.8</ele>
        <time>2015-04-02T12:15:41Z</time>
      </trkpt>
      <trkpt lat="45.3002" lon="5.44572">
        <ele>653.35</ele>
        <time>2015-04-02T12:15:52Z</time>
      </trkpt>
      <trkpt lat="45.3002" lon="5.44589">
        <ele>650.47</ele>
        <time>2015-04-02T12:16:05Z</time>
      </trkpt>
      <trkpt lat="45.30017" lon="5.44608">
        <ele>647.1</ele>
        <time>2015-04-02T12:16:19Z</time>
      </trkpt>
      <trkpt lat="45.3001" lon="5.44628">
        <ele>643.74</ele>
        <time>2015-04-02T12:16:35Z</time>
      </trkpt>
      <trkpt lat="45.30008" lon="5.44651">
        <ele>640.86</ele>
        <time>2015-04-02T12:16:54Z</time>
      </trkpt>
      <trkpt lat="45.30005" lon="5.44668">
        <ele>637.49</ele>
        <time>2015-04-02T12:17:10Z</time>
      </trkpt>
      <trkpt lat="45.30006" lon="5.44668">
        <ele>637.01</ele>
        <time>2015-04-02T12:17:11Z</time>
      </trkpt>
      <trkpt lat="45.30005" lon="5.44692">
        <ele>633.17</ele>
        <time>2015-04-02T12:17:28Z</time>
      </trkpt>
      <trkpt lat="45.30005" lon="5.44709">
        <ele>630.28</ele>
        <time>2015-04-02T12:17:42Z</time>
      </trkpt>
      <trkpt lat="45.30003" lon="5.44725">
        <ele>626.92</ele>
        <time>2015-04-02T12:17:59Z</time>
      </trkpt>
      <trkpt lat="45.30005" lon="5.44745">
        <ele>623.55</ele>
        <time>2015-04-02T12:18:17Z</time>
      </trkpt>
      <trkpt lat="45.30004" lon="5.44759">
        <ele>620.19</ele>
        <time>2015-04-02T12:18:29Z</time>
      </trkpt>
      <trkpt lat="45.30004" lon="5.4476">
        <ele>620.19</ele>
        <time>2015-04-02T12:18:30Z</time>
      </trkpt>
      <trkpt lat="45.30003" lon="5.4477">
        <ele>617.3</ele>
        <time>2015-04-02T12:18:44Z</time>
      </trkpt>
      <trkpt lat="45.30004" lon="5.44781">
        <ele>613.94</ele>
        <time>2015-04-02T12:18:57Z</time>
      </trkpt>
      <trkpt lat="45.30005" lon="5.44796">
        <ele>610.57</ele>
        <time>2015-04-02T12:19:11Z</time>
      </trkpt>
      <trkpt lat="45.30006" lon="5.44809">
        <ele>607.69</ele>
        <time>2015-04-02T12:19:25Z</time>
      </trkpt>
      <trkpt lat="45.30004" lon="5.44813">
        <ele>606.73</ele>
        <time>2015-04-02T12:19:29Z</time>
      </trkpt>
      <trkpt lat="45.30005" lon="5.44823">
        <ele>603.36</ele>
        <time>2015-04-02T12:19:38Z</time>
      </trkpt>
      <trkpt lat="45.30002" lon="5.44838">
        <ele>600</ele>
        <time>2015-04-02T12:19:51Z</time>
      </trkpt>
      <trkpt lat="45.3" lon="5.44851">
        <ele>597.12</ele>
        <time>2015-04-02T12:20:05Z</time>
      </trkpt>
      <trkpt lat="45.29999" lon="5.44856">
        <ele>595.19</ele>
        <time>2015-04-02T12:20:11Z</time>
      </trkpt>
      <trkpt lat="45.29994" lon="5.44872">
        <ele>592.31</ele>
        <time>2015-04-02T12:20:24Z</time>
      </trkpt>
      <trkpt lat="45.29988" lon="5.44879">
        <ele>588.95</ele>
        <time>2015-04-02T12:20:35Z</time>
      </trkpt>
      <trkpt lat="45.29983" lon="5.4489">
        <ele>588.46</ele>
        <time>2015-04-02T12:20:46Z</time>
      </trkpt>
      <trkpt lat="45.29982" lon="5.44904">
        <ele>585.58</ele>
        <time>2015-04-02T12:20:59Z</time>
      </trkpt>
      <trkpt lat="45.29982" lon="5.44922">
        <ele>582.22</ele>
        <time>2015-04-02T12:21:14Z</time>
      </trkpt>
      <trkpt lat="45.29983" lon="5.44937">
        <ele>580.29</ele>
        <time>2015-04-02T12:21:28Z</time>
      </trkpt>
      <trkpt lat="45.29981" lon="5.44963">
        <ele>576.45</ele>
        <time>2015-04-02T12:21:47Z</time>
      </trkpt>
      <trkpt lat="45.29982" lon="5.44981">
        <ele>575.01</ele>
        <time>2015-04-02T12:22:00Z</time>
      </trkpt>
      <trkpt lat="45.2998" lon="5.45007">
        <ele>573.56</ele>
        <time>2015-04-02T12:22:20Z</time>
      </trkpt>
      <trkpt lat="45.29982" lon="5.45026">
        <ele>571.64</ele>
        <time>2015-04-02T12:22:32Z</time>
      </trkpt>
      <trkpt lat="45.29981" lon="5.45044">
        <ele>568.76</ele>
        <time>2015-04-02T12:22:46Z</time>
      </trkpt>
      <trkpt lat="45.29979" lon="5.45069">
        <ele>565.39</ele>
        <time>2015-04-02T12:23:02Z</time>
      </trkpt>
      <trkpt lat="45.29976" lon="5.45091">
        <ele>563.95</ele>
        <time>2015-04-02T12:23:16Z</time>
      </trkpt>
      <trkpt lat="45.29975" lon="5.45117">
        <ele>561.07</ele>
        <time>2015-04-02T12:23:35Z</time>
      </trkpt>
      <trkpt lat="45.29976" lon="5.45126">
        <ele>560.11</ele>
        <time>2015-04-02T12:23:41Z</time>
      </trkpt>
      <trkpt lat="45.29976" lon="5.45131">
        <ele>559.62</ele>
        <time>2015-04-02T12:23:44Z</time>
      </trkpt>
      <trkpt lat="45.29975" lon="5.45166">
        <ele>557.22</ele>
        <time>2015-04-02T12:24:06Z</time>
      </trkpt>
      <trkpt lat="45.29975" lon="5.45187">
        <ele>553.86</ele>
        <time>2015-04-02T12:24:20Z</time>
      </trkpt>
      <trkpt lat="45.29975" lon="5.4522">
        <ele>552.41</ele>
        <time>2015-04-02T12:24:39Z</time>
      </trkpt>
      <trkpt lat="45.29972" lon="5.45252">
        <ele>550.49</ele>
        <time>2015-04-02T12:24:59Z</time>
      </trkpt>
      <trkpt lat="45.29972" lon="5.45274">
        <ele>548.09</ele>
        <time>2015-04-02T12:25:13Z</time>
      </trkpt>
      <trkpt lat="45.2997" lon="5.45282">
        <ele>547.61</ele>
        <time>2015-04-02T12:25:18Z</time>
      </trkpt>
      <trkpt lat="45.29973" lon="5.4531">
        <ele>544.72</ele>
        <time>2015-04-02T12:25:36Z</time>
      </trkpt>
      <trkpt lat="45.29972" lon="5.45332">
        <ele>543.28</ele>
        <time>2015-04-02T12:25:50Z</time>
      </trkpt>
      <trkpt lat="45.29976" lon="5.45361">
        <ele>542.32</ele>
        <time>2015-04-02T12:26:12Z</time>
      </trkpt>
      <trkpt lat="45.29978" lon="5.45365">
        <ele>541.84</ele>
        <time>2015-04-02T12:26:19Z</time>
      </trkpt>
      <trkpt lat="45.29991" lon="5.45361">
        <ele>541.36</ele>
        <time>2015-04-02T12:26:44Z</time>
      </trkpt>
      <trkpt lat="45.29991" lon="5.45361">
        <ele>542.32</ele>
        <time>2015-04-02T12:27:12Z</time>
      </trkpt>
      <trkpt lat="45.29995" lon="5.4536">
        <ele>542.32</ele>
        <time>2015-04-02T12:27:33Z</time>
      </trkpt>
      <trkpt lat="45.29991" lon="5.45362">
        <ele>542.32</ele>
        <time>2015-04-02T12:28:01Z</time>
      </trkpt>
      <trkpt lat="45.29994" lon="5.45362">
        <ele>541.36</ele>
        <time>2015-04-02T12:28:17Z</time>
      </trkpt>
      <trkpt lat="45.30002" lon="5.45363">
        <ele>541.36</ele>
        <time>2015-04-02T12:28:26Z</time>
      </trkpt>
      <trkpt lat="45.30022" lon="5.45379">
        <ele>542.32</ele>
        <time>2015-04-02T12:28:48Z</time>
      </trkpt>
      <trkpt lat="45.30027" lon="5.45388">
        <ele>542.8</ele>
        <time>2015-04-02T12:29:05Z</time>
      </trkpt>
      <trkpt lat="45.30026" lon="5.45384">
        <ele>542.8</ele>
        <time>2015-04-02T12:29:35Z</time>
      </trkpt>
      <trkpt lat="45.30026" lon="5.45378">
        <ele>542.32</ele>
        <time>2015-04-02T12:30:00Z</time>
      </trkpt>
      <trkpt lat="45.30027" lon="5.45378">
        <ele>542.8</ele>
        <time>2015-04-02T12:30:49Z</time>
      </trkpt>
      <trkpt lat="45.30027" lon="5.4538">
        <ele>542.32</ele>
        <time>2015-04-02T12:31:41Z</time>
      </trkpt>
      <trkpt lat="45.30024" lon="5.45376">
        <ele>542.32</ele>
        <time>2015-04-02T12:32:24Z</time>
      </trkpt>
      <trkpt lat="45.30024" lon="5.45375">
        <ele>541.84</ele>
        <time>2015-04-02T12:32:29Z</time>
      </trkpt>
      <trkpt lat="45.30026" lon="5.4537">
        <ele>542.8</ele>
        <time>2015-04-02T12:32:34Z</time>
      </trkpt>
      <trkpt lat="45.30039" lon="5.45368">
        <ele>544.72</ele>
        <time>2015-04-02T12:32:51Z</time>
      </trkpt>
      <trkpt lat="45.30053" lon="5.45367">
        <ele>546.65</ele>
        <time>2015-04-02T12:33:11Z</time>
      </trkpt>
      <trkpt lat="45.30062" lon="5.45361">
        <ele>548.57</ele>
        <time>2015-04-02T12:33:27Z</time>
      </trkpt>
      <trkpt lat="45.30073" lon="5.4536">
        <ele>550.49</ele>
        <time>2015-04-02T12:33:47Z</time>
      </trkpt>
      <trkpt lat="45.30083" lon="5.45359">
        <ele>552.41</ele>
        <time>2015-04-02T12:34:06Z</time>
      </trkpt>
      <trkpt lat="45.30092" lon="5.45359">
        <ele>554.82</ele>
        <time>2015-04-02T12:34:24Z</time>
      </trkpt>
      <trkpt lat="45.301" lon="5.45359">
        <ele>556.74</ele>
        <time>2015-04-02T12:34:41Z</time>
      </trkpt>
      <trkpt lat="45.3011" lon="5.4536">
        <ele>559.14</ele>
        <time>2015-04-02T12:35:03Z</time>
      </trkpt>
      <trkpt lat="45.3012" lon="5.45361">
        <ele>562.03</ele>
        <time>2015-04-02T12:35:23Z</time>
      </trkpt>
      <trkpt lat="45.30126" lon="5.45359">
        <ele>563.47</ele>
        <time>2015-04-02T12:35:40Z</time>
      </trkpt>
      <trkpt lat="45.30134" lon="5.45356">
        <ele>566.35</ele>
        <time>2015-04-02T12:36:00Z</time>
      </trkpt>
      <trkpt lat="45.30142" lon="5.45356">
        <ele>568.76</ele>
        <time>2015-04-02T12:36:17Z</time>
      </trkpt>
      <trkpt lat="45.3015" lon="5.45354">
        <ele>570.2</ele>
        <time>2015-04-02T12:36:32Z</time>
      </trkpt>
      <trkpt lat="45.30157" lon="5.45351">
        <ele>573.08</ele>
        <time>2015-04-02T12:36:48Z</time>
      </trkpt>
      <trkpt lat="45.30163" lon="5.45348">
        <ele>574.53</ele>
        <time>2015-04-02T12:37:01Z</time>
      </trkpt>
      <trkpt lat="45.30171" lon="5.45345">
        <ele>577.41</ele>
        <time>2015-04-02T12:37:21Z</time>
      </trkpt>
      <trkpt lat="45.30176" lon="5.45337">
        <ele>580.29</ele>
        <time>2015-04-02T12:37:42Z</time>
      </trkpt>
      <trkpt lat="45.30182" lon="5.4534">
        <ele>583.66</ele>
        <time>2015-04-02T12:38:01Z</time>
      </trkpt>
      <trkpt lat="45.30189" lon="5.45347">
        <ele>586.06</ele>
        <time>2015-04-02T12:38:18Z</time>
      </trkpt>
      <trkpt lat="45.30193" lon="5.45353">
        <ele>587.98</ele>
        <time>2015-04-02T12:38:31Z</time>
      </trkpt>
      <trkpt lat="45.30197" lon="5.45365">
        <ele>590.39</ele>
        <time>2015-04-02T12:38:49Z</time>
      </trkpt>
      <trkpt lat="45.30203" lon="5.45378">
        <ele>592.79</ele>
        <time>2015-04-02T12:39:08Z</time>
      </trkpt>
      <trkpt lat="45.30206" lon="5.45387">
        <ele>595.19</ele>
        <time>2015-04-02T12:39:24Z</time>
      </trkpt>
      <trkpt lat="45.30209" lon="5.45395">
        <ele>596.64</ele>
        <time>2015-04-02T12:39:34Z</time>
      </trkpt>
      <trkpt lat="45.30214" lon="5.45411">
        <ele>598.08</ele>
        <time>2015-04-02T12:39:52Z</time>
      </trkpt>
      <trkpt lat="45.3022" lon="5.45426">
        <ele>600</ele>
        <time>2015-04-02T12:40:09Z</time>
      </trkpt>
      <trkpt lat="45.30227" lon="5.45439">
        <ele>601.92</ele>
        <time>2015-04-02T12:40:30Z</time>
      </trkpt>
      <trkpt lat="45.30228" lon="5.4544">
        <ele>602.4</ele>
        <time>2015-04-02T12:40:31Z</time>
      </trkpt>
      <trkpt lat="45.30231" lon="5.4545">
        <ele>603.85</ele>
        <time>2015-04-02T12:40:48Z</time>
      </trkpt>
      <trkpt lat="45.30238" lon="5.45458">
        <ele>607.21</ele>
        <time>2015-04-02T12:41:02Z</time>
      </trkpt>
      <trkpt lat="45.30248" lon="5.4547">
        <ele>609.61</ele>
        <time>2015-04-02T12:41:23Z</time>
      </trkpt>
      <trkpt lat="45.30254" lon="5.45478">
        <ele>611.54</ele>
        <time>2015-04-02T12:41:37Z</time>
      </trkpt>
      <trkpt lat="45.3026" lon="5.45486">
        <ele>612.98</ele>
        <time>2015-04-02T12:41:49Z</time>
      </trkpt>
      <trkpt lat="45.30268" lon="5.45494">
        <ele>615.38</ele>
        <time>2015-04-02T12:42:05Z</time>
      </trkpt>
      <trkpt lat="45.30279" lon="5.45508">
        <ele>617.3</ele>
        <time>2015-04-02T12:42:25Z</time>
      </trkpt>
      <trkpt lat="45.30288" lon="5.45526">
        <ele>618.26</ele>
        <time>2015-04-02T12:42:43Z</time>
      </trkpt>
      <trkpt lat="45.30293" lon="5.45544">
        <ele>619.23</ele>
        <time>2015-04-02T12:43:02Z</time>
      </trkpt>
      <trkpt lat="45.30301" lon="5.45559">
        <ele>621.15</ele>
        <time>2015-04-02T12:43:19Z</time>
      </trkpt>
      <trkpt lat="45.30309" lon="5.45573">
        <ele>623.55</ele>
        <time>2015-04-02T12:43:35Z</time>
      </trkpt>
      <trkpt lat="45.30315" lon="5.45581">
        <ele>625.47</ele>
        <time>2015-04-02T12:43:50Z</time>
      </trkpt>
      <trkpt lat="45.30325" lon="5.45586">
        <ele>626.92</ele>
        <time>2015-04-02T12:44:09Z</time>
      </trkpt>
      <trkpt lat="45.3033" lon="5.45592">
        <ele>630.28</ele>
        <time>2015-04-02T12:44:22Z</time>
      </trkpt>
      <trkpt lat="45.3034" lon="5.45601">
        <ele>632.68</ele>
        <time>2015-04-02T12:44:45Z</time>
      </trkpt>
      <trkpt lat="45.30346" lon="5.45609">
        <ele>635.57</ele>
        <time>2015-04-02T12:45:04Z</time>
      </trkpt>
      <trkpt lat="45.30354" lon="5.45615">
        <ele>637.49</ele>
        <time>2015-04-02T12:45:22Z</time>
      </trkpt>
      <trkpt lat="45.30358" lon="5.4562">
        <ele>639.89</ele>
        <time>2015-04-02T12:45:38Z</time>
      </trkpt>
      <trkpt lat="45.30364" lon="5.45627">
        <ele>642.78</ele>
        <time>2015-04-02T12:45:59Z</time>
      </trkpt>
      <trkpt lat="45.3037" lon="5.45634">
        <ele>646.14</ele>
        <time>2015-04-02T12:46:18Z</time>
      </trkpt>
      <trkpt lat="45.30381" lon="5.45638">
        <ele>649.03</ele>
        <time>2015-04-02T12:46:41Z</time>
      </trkpt>
      <trkpt lat="45.30387" lon="5.45642">
        <ele>651.91</ele>
        <time>2015-04-02T12:47:01Z</time>
      </trkpt>
      <trkpt lat="45.30398" lon="5.45645">
        <ele>654.8</ele>
        <time>2015-04-02T12:47:21Z</time>
      </trkpt>
      <trkpt lat="45.30402" lon="5.45649">
        <ele>656.24</ele>
        <time>2015-04-02T12:47:29Z</time>
      </trkpt>
      <trkpt lat="45.30414" lon="5.45652">
        <ele>658.64</ele>
        <time>2015-04-02T12:47:47Z</time>
      </trkpt>
      <trkpt lat="45.30417" lon="5.45652">
        <ele>660.08</ele>
        <time>2015-04-02T12:47:59Z</time>
      </trkpt>
      <trkpt lat="45.30425" lon="5.45655">
        <ele>662.01</ele>
        <time>2015-04-02T12:48:18Z</time>
      </trkpt>
      <trkpt lat="45.30432" lon="5.45657">
        <ele>664.89</ele>
        <time>2015-04-02T12:48:37Z</time>
      </trkpt>
      <trkpt lat="45.30443" lon="5.45658">
        <ele>666.81</ele>
        <time>2015-04-02T12:48:57Z</time>
      </trkpt>
      <trkpt lat="45.3045" lon="5.45658">
        <ele>669.7</ele>
        <time>2015-04-02T12:49:17Z</time>
      </trkpt>
      <trkpt lat="45.3046" lon="5.45661">
        <ele>671.62</ele>
        <time>2015-04-02T12:49:36Z</time>
      </trkpt>
      <trkpt lat="45.30465" lon="5.45665">
        <ele>674.5</ele>
        <time>2015-04-02T12:49:50Z</time>
      </trkpt>
      <trkpt lat="45.30476" lon="5.45666">
        <ele>676.91</ele>
        <time>2015-04-02T12:50:08Z</time>
      </trkpt>
      <trkpt lat="45.30479" lon="5.45665">
        <ele>677.87</ele>
        <time>2015-04-02T12:50:14Z</time>
      </trkpt>
      <trkpt lat="45.30491" lon="5.45662">
        <ele>679.79</ele>
        <time>2015-04-02T12:50:35Z</time>
      </trkpt>
      <trkpt lat="45.30502" lon="5.45657">
        <ele>681.71</ele>
        <time>2015-04-02T12:50:54Z</time>
      </trkpt>
      <trkpt lat="45.3051" lon="5.45655">
        <ele>683.63</ele>
        <time>2015-04-02T12:51:10Z</time>
      </trkpt>
      <trkpt lat="45.30522" lon="5.45653">
        <ele>686.52</ele>
        <time>2015-04-02T12:51:30Z</time>
      </trkpt>
      <trkpt lat="45.30531" lon="5.4565">
        <ele>687.48</ele>
        <time>2015-04-02T12:51:49Z</time>
      </trkpt>
      <trkpt lat="45.30535" lon="5.4565">
        <ele>687.96</ele>
        <time>2015-04-02T12:52:24Z</time>
      </trkpt>
      <trkpt lat="45.30533" lon="5.45648">
        <ele>687.96</ele>
        <time>2015-04-02T12:52:47Z</time>
      </trkpt>
      <trkpt lat="45.30535" lon="5.4565">
        <ele>687.48</ele>
        <time>2015-04-02T12:53:16Z</time>
      </trkpt>
      <trkpt lat="45.30538" lon="5.45651">
        <ele>687.48</ele>
        <time>2015-04-02T12:53:35Z</time>
      </trkpt>
      <trkpt lat="45.30538" lon="5.45651">
        <ele>687.48</ele>
        <time>2015-04-02T12:54:06Z</time>
      </trkpt>
      <trkpt lat="45.30539" lon="5.45651">
        <ele>687</ele>
        <time>2015-04-02T12:54:39Z</time>
      </trkpt>
      <trkpt lat="45.30544" lon="5.45648">
        <ele>688.92</ele>
        <time>2015-04-02T12:54:57Z</time>
      </trkpt>
      <trkpt lat="45.30558" lon="5.45654">
        <ele>689.4</ele>
        <time>2015-04-02T12:55:18Z</time>
      </trkpt>
      <trkpt lat="45.30573" lon="5.45664">
        <ele>690.84</ele>
        <time>2015-04-02T12:55:38Z</time>
      </trkpt>
      <trkpt lat="45.30591" lon="5.45676">
        <ele>694.21</ele>
        <time>2015-04-02T12:56:03Z</time>
      </trkpt>
      <trkpt lat="45.30595" lon="5.45678">
        <ele>694.69</ele>
        <time>2015-04-02T12:56:08Z</time>
      </trkpt>
      <trkpt lat="45.30617" lon="5.45686">
        <ele>707.67</ele>
        <time>2015-04-02T12:56:37Z</time>
      </trkpt>
      <trkpt lat="45.30618" lon="5.45686">
        <ele>707.19</ele>
        <time>2015-04-02T12:56:38Z</time>
      </trkpt>
      <trkpt lat="45.30631" lon="5.45697">
        <ele>705.26</ele>
        <time>2015-04-02T12:56:58Z</time>
      </trkpt>
      <trkpt lat="45.3065" lon="5.45716">
        <ele>701.9</ele>
        <time>2015-04-02T12:57:22Z</time>
      </trkpt>
      <trkpt lat="45.30667" lon="5.45736">
        <ele>701.42</ele>
        <time>2015-04-02T12:57:46Z</time>
      </trkpt>
      <trkpt lat="45.30672" lon="5.45741">
        <ele>699.98</ele>
        <time>2015-04-02T12:57:56Z</time>
      </trkpt>
      <trkpt lat="45.30696" lon="5.4576">
        <ele>700.94</ele>
        <time>2015-04-02T12:58:22Z</time>
      </trkpt>
      <trkpt lat="45.30711" lon="5.45774">
        <ele>702.86</ele>
        <time>2015-04-02T12:58:40Z</time>
      </trkpt>
      <trkpt lat="45.30734" lon="5.45797">
        <ele>703.82</ele>
        <time>2015-04-02T12:59:05Z</time>
      </trkpt>
      <trkpt lat="45.30755" lon="5.45828">
        <ele>705.26</ele>
        <time>2015-04-02T12:59:32Z</time>
      </trkpt>
      <trkpt lat="45.30767" lon="5.45851">
        <ele>705.75</ele>
        <time>2015-04-02T12:59:50Z</time>
      </trkpt>
      <trkpt lat="45.3078" lon="5.45881">
        <ele>706.71</ele>
        <time>2015-04-02T13:00:12Z</time>
      </trkpt>
      <trkpt lat="45.3079" lon="5.4591">
        <ele>706.71</ele>
        <time>2015-04-02T13:00:33Z</time>
      </trkpt>
      <trkpt lat="45.30798" lon="5.45944">
        <ele>707.19</ele>
        <time>2015-04-02T13:00:56Z</time>
      </trkpt>
      <trkpt lat="45.308" lon="5.45954">
        <ele>706.71</ele>
        <time>2015-04-02T13:01:03Z</time>
      </trkpt>
      <trkpt lat="45.30803" lon="5.4597">
        <ele>706.71</ele>
        <time>2015-04-02T13:01:14Z</time>
      </trkpt>
      <trkpt lat="45.30813" lon="5.45999">
        <ele>706.23</ele>
        <time>2015-04-02T13:01:37Z</time>
      </trkpt>
      <trkpt lat="45.30816" lon="5.46005">
        <ele>706.71</ele>
        <time>2015-04-02T13:01:42Z</time>
      </trkpt>
      <trkpt lat="45.3083" lon="5.46037">
        <ele>706.23</ele>
        <time>2015-04-02T13:02:07Z</time>
      </trkpt>
      <trkpt lat="45.30845" lon="5.46067">
        <ele>706.23</ele>
        <time>2015-04-02T13:02:31Z</time>
      </trkpt>
      <trkpt lat="45.30861" lon="5.4608">
        <ele>705.75</ele>
        <time>2015-04-02T13:02:50Z</time>
      </trkpt>
      <trkpt lat="45.30887" lon="5.46067">
        <ele>707.19</ele>
        <time>2015-04-02T13:03:13Z</time>
      </trkpt>
      <trkpt lat="45.30908" lon="5.4605">
        <ele>709.11</ele>
        <time>2015-04-02T13:03:37Z</time>
      </trkpt>
      <trkpt lat="45.30928" lon="5.46034">
        <ele>711.99</ele>
        <time>2015-04-02T13:04:01Z</time>
      </trkpt>
      <trkpt lat="45.30941" lon="5.46029">
        <ele>714.4</ele>
        <time>2015-04-02T13:04:21Z</time>
      </trkpt>
      <trkpt lat="45.30952" lon="5.46031">
        <ele>717.76</ele>
        <time>2015-04-02T13:04:39Z</time>
      </trkpt>
      <trkpt lat="45.30959" lon="5.46034">
        <ele>718.72</ele>
        <time>2015-04-02T13:04:48Z</time>
      </trkpt>
      <trkpt lat="45.3097" lon="5.46038">
        <ele>721.13</ele>
        <time>2015-04-02T13:05:03Z</time>
      </trkpt>
      <trkpt lat="45.30981" lon="5.46041">
        <ele>724.49</ele>
        <time>2015-04-02T13:05:17Z</time>
      </trkpt>
      <trkpt lat="45.30995" lon="5.46046">
        <ele>726.89</ele>
        <time>2015-04-02T13:05:38Z</time>
      </trkpt>
      <trkpt lat="45.31009" lon="5.46049">
        <ele>730.26</ele>
        <time>2015-04-02T13:05:56Z</time>
      </trkpt>
      <trkpt lat="45.31026" lon="5.4605">
        <ele>733.14</ele>
        <time>2015-04-02T13:06:17Z</time>
      </trkpt>
      <trkpt lat="45.31038" lon="5.46049">
        <ele>736.51</ele>
        <time>2015-04-02T13:06:34Z</time>
      </trkpt>
      <trkpt lat="45.31054" lon="5.46048">
        <ele>738.91</ele>
        <time>2015-04-02T13:06:52Z</time>
      </trkpt>
      <trkpt lat="45.31057" lon="5.46048">
        <ele>738.91</ele>
        <time>2015-04-02T13:06:56Z</time>
      </trkpt>
      <trkpt lat="45.31058" lon="5.46048">
        <ele>738.91</ele>
        <time>2015-04-02T13:06:58Z</time>
      </trkpt>
      <trkpt lat="45.31075" lon="5.46053">
        <ele>741.31</ele>
        <time>2015-04-02T13:07:17Z</time>
      </trkpt>
      <trkpt lat="45.31107" lon="5.46074">
        <ele>745.16</ele>
        <time>2015-04-02T13:07:54Z</time>
      </trkpt>
      <trkpt lat="45.31109" lon="5.46071">
        <ele>745.16</ele>
        <time>2015-04-02T13:07:55Z</time>
      </trkpt>
      <trkpt lat="45.31123" lon="5.46092">
        <ele>745.64</ele>
        <time>2015-04-02T13:08:15Z</time>
      </trkpt>
      <trkpt lat="45.31138" lon="5.4612">
        <ele>746.6</ele>
        <time>2015-04-02T13:08:37Z</time>
      </trkpt>
      <trkpt lat="45.31149" lon="5.46141">
        <ele>749</ele>
        <time>2015-04-02T13:08:57Z</time>
      </trkpt>
      <trkpt lat="45.31158" lon="5.4616">
        <ele>750.45</ele>
        <time>2015-04-02T13:09:13Z</time>
      </trkpt>
      <trkpt lat="45.31168" lon="5.46181">
        <ele>752.85</ele>
        <time>2015-04-02T13:09:31Z</time>
      </trkpt>
      <trkpt lat="45.31173" lon="5.46189">
        <ele>754.29</ele>
        <time>2015-04-02T13:09:38Z</time>
      </trkpt>
      <trkpt lat="45.31188" lon="5.46227">
        <ele>756.21</ele>
        <time>2015-04-02T13:10:01Z</time>
      </trkpt>
      <trkpt lat="45.31189" lon="5.46231">
        <ele>755.25</ele>
        <time>2015-04-02T13:10:03Z</time>
      </trkpt>
      <trkpt lat="45.31193" lon="5.46235">
        <ele>756.69</ele>
        <time>2015-04-02T13:10:06Z</time>
      </trkpt>
      <trkpt lat="45.31201" lon="5.46252">
        <ele>757.18</ele>
        <time>2015-04-02T13:10:18Z</time>
      </trkpt>
      <trkpt lat="45.31209" lon="5.46271">
        <ele>759.58</ele>
        <time>2015-04-02T13:10:31Z</time>
      </trkpt>
      <trkpt lat="45.3122" lon="5.46294">
        <ele>761.02</ele>
        <time>2015-04-02T13:10:50Z</time>
      </trkpt>
      <trkpt lat="45.3123" lon="5.46323">
        <ele>762.46</ele>
        <time>2015-04-02T13:11:12Z</time>
      </trkpt>
      <trkpt lat="45.31235" lon="5.46335">
        <ele>762.46</ele>
        <time>2015-04-02T13:11:31Z</time>
      </trkpt>
      <trkpt lat="45.31242" lon="5.4635">
        <ele>762.46</ele>
        <time>2015-04-02T13:11:53Z</time>
      </trkpt>
      <trkpt lat="45.31247" lon="5.46361">
        <ele>762.46</ele>
        <time>2015-04-02T13:12:03Z</time>
      </trkpt>
      <trkpt lat="45.31266" lon="5.46392">
        <ele>762.46</ele>
        <time>2015-04-02T13:12:27Z</time>
      </trkpt>
      <trkpt lat="45.31267" lon="5.46389">
        <ele>761.5</ele>
        <time>2015-04-02T13:12:29Z</time>
      </trkpt>
      <trkpt lat="45.31282" lon="5.46393">
        <ele>761.98</ele>
        <time>2015-04-02T13:12:46Z</time>
      </trkpt>
      <trkpt lat="45.31291" lon="5.46391">
        <ele>763.9</ele>
        <time>2015-04-02T13:12:56Z</time>
      </trkpt>
      <trkpt lat="45.3131" lon="5.46385">
        <ele>764.39</ele>
        <time>2015-04-02T13:13:18Z</time>
      </trkpt>
      <trkpt lat="45.31332" lon="5.46384">
        <ele>763.42</ele>
        <time>2015-04-02T13:13:38Z</time>
      </trkpt>
      <trkpt lat="45.31346" lon="5.46382">
        <ele>762.94</ele>
        <time>2015-04-02T13:13:49Z</time>
      </trkpt>
      <trkpt lat="45.31367" lon="5.46383">
        <ele>761.02</ele>
        <time>2015-04-02T13:14:08Z</time>
      </trkpt>
      <trkpt lat="45.3139" lon="5.46382">
        <ele>758.14</ele>
        <time>2015-04-02T13:14:26Z</time>
      </trkpt>
      <trkpt lat="45.31409" lon="5.46356">
        <ele>754.29</ele>
        <time>2015-04-02T13:14:53Z</time>
      </trkpt>
      <trkpt lat="45.31414" lon="5.46337">
        <ele>752.85</ele>
        <time>2015-04-02T13:15:08Z</time>
      </trkpt>
      <trkpt lat="45.31423" lon="5.46315">
        <ele>751.41</ele>
        <time>2015-04-02T13:15:30Z</time>
      </trkpt>
      <trkpt lat="45.31434" lon="5.46312">
        <ele>748.04</ele>
        <time>2015-04-02T13:15:45Z</time>
      </trkpt>
      <trkpt lat="45.31458" lon="5.46307">
        <ele>747.08</ele>
        <time>2015-04-02T13:16:01Z</time>
      </trkpt>
      <trkpt lat="45.31471" lon="5.46305">
        <ele>744.2</ele>
        <time>2015-04-02T13:16:15Z</time>
      </trkpt>
      <trkpt lat="45.3149" lon="5.463">
        <ele>741.31</ele>
        <time>2015-04-02T13:16:35Z</time>
      </trkpt>
      <trkpt lat="45.31512" lon="5.46299">
        <ele>738.43</ele>
        <time>2015-04-02T13:16:57Z</time>
      </trkpt>
      <trkpt lat="45.3152" lon="5.46299">
        <ele>737.47</ele>
        <time>2015-04-02T13:17:04Z</time>
      </trkpt>
      <trkpt lat="45.31531" lon="5.46296">
        <ele>735.55</ele>
        <time>2015-04-02T13:17:14Z</time>
      </trkpt>
      <trkpt lat="45.31549" lon="5.4629">
        <ele>732.18</ele>
        <time>2015-04-02T13:17:32Z</time>
      </trkpt>
      <trkpt lat="45.3157" lon="5.46286">
        <ele>729.3</ele>
        <time>2015-04-02T13:17:54Z</time>
      </trkpt>
      <trkpt lat="45.31586" lon="5.46288">
        <ele>725.93</ele>
        <time>2015-04-02T13:18:12Z</time>
      </trkpt>
      <trkpt lat="45.31605" lon="5.46288">
        <ele>722.57</ele>
        <time>2015-04-02T13:18:34Z</time>
      </trkpt>
      <trkpt lat="45.31625" lon="5.46288">
        <ele>718.72</ele>
        <time>2015-04-02T13:18:55Z</time>
      </trkpt>
      <trkpt lat="45.31642" lon="5.46282">
        <ele>715.84</ele>
        <time>2015-04-02T13:19:16Z</time>
      </trkpt>
      <trkpt lat="45.31647" lon="5.4628">
        <ele>713.92</ele>
        <time>2015-04-02T13:19:21Z</time>
      </trkpt>
      <trkpt lat="45.31658" lon="5.46273">
        <ele>711.03</ele>
        <time>2015-04-02T13:19:35Z</time>
      </trkpt>
      <trkpt lat="45.31665" lon="5.46264">
        <ele>708.15</ele>
        <time>2015-04-02T13:19:52Z</time>
      </trkpt>
      <trkpt lat="45.31675" lon="5.46254">
        <ele>704.78</ele>
        <time>2015-04-02T13:20:07Z</time>
      </trkpt>
      <trkpt lat="45.31681" lon="5.46258">
        <ele>704.3</ele>
        <time>2015-04-02T13:20:16Z</time>
      </trkpt>
      <trkpt lat="45.3169" lon="5.46284">
        <ele>701.42</ele>
        <time>2015-04-02T13:20:40Z</time>
      </trkpt>
      <trkpt lat="45.3169" lon="5.46285">
        <ele>701.9</ele>
        <time>2015-04-02T13:20:57Z</time>
      </trkpt>
      <trkpt lat="45.3169" lon="5.46301">
        <ele>700.46</ele>
        <time>2015-04-02T13:21:08Z</time>
      </trkpt>
      <trkpt lat="45.31691" lon="5.46313">
        <ele>699.02</ele>
        <time>2015-04-02T13:21:16Z</time>
      </trkpt>
      <trkpt lat="45.31692" lon="5.46323">
        <ele>698.05</ele>
        <time>2015-04-02T13:21:24Z</time>
      </trkpt>
      <trkpt lat="45.31687" lon="5.46346">
        <ele>694.21</ele>
        <time>2015-04-02T13:21:43Z</time>
      </trkpt>
      <trkpt lat="45.31679" lon="5.46362">
        <ele>691.33</ele>
        <time>2015-04-02T13:22:00Z</time>
      </trkpt>
      <trkpt lat="45.3167" lon="5.46391">
        <ele>688.92</ele>
        <time>2015-04-02T13:22:18Z</time>
      </trkpt>
      <trkpt lat="45.31663" lon="5.46414">
        <ele>686.52</ele>
        <time>2015-04-02T13:22:35Z</time>
      </trkpt>
      <trkpt lat="45.31649" lon="5.46453">
        <ele>684.12</ele>
        <time>2015-04-02T13:22:59Z</time>
      </trkpt>
      <trkpt lat="45.31648" lon="5.46464">
        <ele>682.67</ele>
        <time>2015-04-02T13:23:08Z</time>
      </trkpt>
      <trkpt lat="45.31645" lon="5.46491">
        <ele>678.83</ele>
        <time>2015-04-02T13:23:26Z</time>
      </trkpt>
      <trkpt lat="45.31645" lon="5.46494">
        <ele>679.31</ele>
        <time>2015-04-02T13:23:28Z</time>
      </trkpt>
      <trkpt lat="45.3165" lon="5.4652">
        <ele>676.91</ele>
        <time>2015-04-02T13:23:47Z</time>
      </trkpt>
      <trkpt lat="45.3165" lon="5.46542">
        <ele>675.46</ele>
        <time>2015-04-02T13:24:09Z</time>
      </trkpt>
      <trkpt lat="45.3165" lon="5.46551">
        <ele>674.02</ele>
        <time>2015-04-02T13:24:32Z</time>
      </trkpt>
      <trkpt lat="45.31655" lon="5.46569">
        <ele>670.66</ele>
        <time>2015-04-02T13:24:48Z</time>
      </trkpt>
      <trkpt lat="45.31659" lon="5.46585">
        <ele>667.29</ele>
        <time>2015-04-02T13:25:03Z</time>
      </trkpt>
      <trkpt lat="45.31663" lon="5.46596">
        <ele>664.89</ele>
        <time>2015-04-02T13:25:11Z</time>
      </trkpt>
      <trkpt lat="45.31671" lon="5.4661">
        <ele>661.52</ele>
        <time>2015-04-02T13:25:24Z</time>
      </trkpt>
      <trkpt lat="45.31681" lon="5.46622">
        <ele>658.16</ele>
        <time>2015-04-02T13:25:37Z</time>
      </trkpt>
      <trkpt lat="45.3169" lon="5.46635">
        <ele>654.8</ele>
        <time>2015-04-02T13:25:53Z</time>
      </trkpt>
      <trkpt lat="45.31699" lon="5.46649">
        <ele>651.43</ele>
        <time>2015-04-02T13:26:10Z</time>
      </trkpt>
      <trkpt lat="45.3171" lon="5.46659">
        <ele>648.07</ele>
        <time>2015-04-02T13:26:27Z</time>
      </trkpt>
      <trkpt lat="45.31722" lon="5.46666">
        <ele>645.18</ele>
        <time>2015-04-02T13:26:44Z</time>
      </trkpt>
      <trkpt lat="45.31735" lon="5.46673">
        <ele>642.3</ele>
        <time>2015-04-02T13:27:01Z</time>
      </trkpt>
      <trkpt lat="45.3175" lon="5.46685">
        <ele>639.41</ele>
        <time>2015-04-02T13:27:17Z</time>
      </trkpt>
      <trkpt lat="45.31761" lon="5.46696">
        <ele>636.53</ele>
        <time>2015-04-02T13:27:30Z</time>
      </trkpt>
      <trkpt lat="45.31773" lon="5.46707">
        <ele>633.17</ele>
        <time>2015-04-02T13:27:48Z</time>
      </trkpt>
      <trkpt lat="45.31782" lon="5.46714">
        <ele>630.76</ele>
        <time>2015-04-02T13:28:05Z</time>
      </trkpt>
      <trkpt lat="45.31792" lon="5.46721">
        <ele>627.4</ele>
        <time>2015-04-02T13:28:19Z</time>
      </trkpt>
      <trkpt lat="45.31806" lon="5.46727">
        <ele>624.51</ele>
        <time>2015-04-02T13:28:36Z</time>
      </trkpt>
      <trkpt lat="45.31811" lon="5.46732">
        <ele>621.63</ele>
        <time>2015-04-02T13:28:46Z</time>
      </trkpt>
      <trkpt lat="45.31813" lon="5.46748">
        <ele>618.75</ele>
        <time>2015-04-02T13:29:04Z</time>
      </trkpt>
      <trkpt lat="45.31815" lon="5.46758">
        <ele>615.38</ele>
        <time>2015-04-02T13:29:18Z</time>
      </trkpt>
      <trkpt lat="45.31816" lon="5.46771">
        <ele>613.46</ele>
        <time>2015-04-02T13:29:34Z</time>
      </trkpt>
      <trkpt lat="45.3182" lon="5.46782">
        <ele>610.57</ele>
        <time>2015-04-02T13:29:48Z</time>
      </trkpt>
      <trkpt lat="45.31823" lon="5.46792">
        <ele>607.21</ele>
        <time>2015-04-02T13:30:02Z</time>
      </trkpt>
      <trkpt lat="45.31826" lon="5.46811">
        <ele>603.85</ele>
        <time>2015-04-02T13:30:20Z</time>
      </trkpt>
      <trkpt lat="45.31836" lon="5.46828">
        <ele>600.48</ele>
        <time>2015-04-02T13:30:39Z</time>
      </trkpt>
      <trkpt lat="45.31844" lon="5.46843">
        <ele>597.12</ele>
        <time>2015-04-02T13:30:57Z</time>
      </trkpt>
      <trkpt lat="45.31839" lon="5.46859">
        <ele>594.23</ele>
        <time>2015-04-02T13:31:14Z</time>
      </trkpt>
      <trkpt lat="45.31832" lon="5.46867">
        <ele>592.31</ele>
        <time>2015-04-02T13:31:28Z</time>
      </trkpt>
      <trkpt lat="45.31819" lon="5.46872">
        <ele>588.46</ele>
        <time>2015-04-02T13:31:46Z</time>
      </trkpt>
      <trkpt lat="45.31807" lon="5.46873">
        <ele>585.58</ele>
        <time>2015-04-02T13:32:03Z</time>
      </trkpt>
      <trkpt lat="45.31792" lon="5.46875">
        <ele>583.18</ele>
        <time>2015-04-02T13:32:20Z</time>
      </trkpt>
      <trkpt lat="45.31778" lon="5.46877">
        <ele>580.29</ele>
        <time>2015-04-02T13:32:38Z</time>
      </trkpt>
      <trkpt lat="45.31768" lon="5.46885">
        <ele>577.41</ele>
        <time>2015-04-02T13:32:53Z</time>
      </trkpt>
      <trkpt lat="45.31757" lon="5.4689">
        <ele>575.97</ele>
        <time>2015-04-02T13:33:03Z</time>
      </trkpt>
      <trkpt lat="45.31741" lon="5.46903">
        <ele>572.6</ele>
        <time>2015-04-02T13:33:22Z</time>
      </trkpt>
      <trkpt lat="45.31739" lon="5.46904">
        <ele>572.12</ele>
        <time>2015-04-02T13:33:25Z</time>
      </trkpt>
      <trkpt lat="45.31726" lon="5.46909">
        <ele>569.72</ele>
        <time>2015-04-02T13:33:39Z</time>
      </trkpt>
      <trkpt lat="45.31722" lon="5.46917">
        <ele>567.8</ele>
        <time>2015-04-02T13:33:50Z</time>
      </trkpt>
      <trkpt lat="45.31741" lon="5.46919">
        <ele>569.72</ele>
        <time>2015-04-02T13:34:11Z</time>
      </trkpt>
      <trkpt lat="45.31761" lon="5.46925">
        <ele>570.68</ele>
        <time>2015-04-02T13:34:30Z</time>
      </trkpt>
      <trkpt lat="45.31772" lon="5.46928">
        <ele>571.16</ele>
        <time>2015-04-02T13:34:40Z</time>
      </trkpt>
      <trkpt lat="45.31776" lon="5.46931">
        <ele>572.12</ele>
        <time>2015-04-02T13:34:44Z</time>
      </trkpt>
      <trkpt lat="45.31801" lon="5.46935">
        <ele>572.6</ele>
        <time>2015-04-02T13:35:06Z</time>
      </trkpt>
      <trkpt lat="45.31827" lon="5.46934">
        <ele>575.01</ele>
        <time>2015-04-02T13:35:32Z</time>
      </trkpt>
      <trkpt lat="45.31831" lon="5.46931">
        <ele>575.49</ele>
        <time>2015-04-02T13:35:49Z</time>
      </trkpt>
      <trkpt lat="45.31827" lon="5.4693">
        <ele>575.49</ele>
        <time>2015-04-02T13:36:09Z</time>
      </trkpt>
      <trkpt lat="45.31836" lon="5.4694">
        <ele>575.49</ele>
        <time>2015-04-02T13:36:28Z</time>
      </trkpt>
      <trkpt lat="45.31839" lon="5.4694">
        <ele>575.01</ele>
        <time>2015-04-02T13:36:47Z</time>
      </trkpt>
      <trkpt lat="45.31838" lon="5.46944">
        <ele>575.01</ele>
        <time>2015-04-02T13:37:05Z</time>
      </trkpt>
      <trkpt lat="45.31836" lon="5.46937">
        <ele>575.49</ele>
        <time>2015-04-02T13:37:20Z</time>
      </trkpt>
      <trkpt lat="45.31835" lon="5.46932">
        <ele>575.01</ele>
        <time>2015-04-02T13:37:40Z</time>
      </trkpt>
      <trkpt lat="45.31835" lon="5.46931">
        <ele>575.01</ele>
        <time>2015-04-02T13:37:41Z</time>
      </trkpt>
      <trkpt lat="45.31838" lon="5.46936">
        <ele>575.49</ele>
        <time>2015-04-02T13:37:57Z</time>
      </trkpt>
      <trkpt lat="45.3184" lon="5.46942">
        <ele>575.01</ele>
        <time>2015-04-02T13:38:18Z</time>
      </trkpt>
      <trkpt lat="45.31841" lon="5.46942">
        <ele>575.49</ele>
        <time>2015-04-02T13:38:43Z</time>
      </trkpt>
      <trkpt lat="45.31841" lon="5.46946">
        <ele>575.01</ele>
        <time>2015-04-02T13:38:53Z</time>
      </trkpt>
      <trkpt lat="45.31845" lon="5.46948">
        <ele>576.45</ele>
        <time>2015-04-02T13:39:09Z</time>
      </trkpt>
    </trkseg>
  </trk>
</gpx>